<?xml version="1.0" encoding="UTF-8" standalone="no" ?>
<gpx xmlns="http://www.topografix.com/GPX/1/1" xmlns:xsi="http://www.w3.org/2001/XMLSchema-instance" xsi:schemaLocation="http://www.topografix.com/GPX/1/1 http://www.topografix.com/GPX/1/1/gpx.xsd" version="1.1" creator="VisuGPX - https://www.visugpx.com">
  <metadata>
    <name>Tour du pic Curucucull</name>
    <desc><![CDATA[petite rando tout de suite dépaysante. ]]></desc>
  </metadata>
  <trk>
    <name><![CDATA[Fontpédrouse Marche 17 avr. 2019 à 13:54]]></name>
    <trkseg>
      <trkpt lat="42.49921" lon="2.17334">
        <ele>1315</ele>
        <time>2019-04-17T11:54:22Z</time>
      </trkpt>
      <trkpt lat="42.49921" lon="2.17334">
        <ele>1315</ele>
        <time>2019-04-17T11:54:23Z</time>
      </trkpt>
      <trkpt lat="42.49909" lon="2.17342">
        <ele>1315</ele>
        <time>2019-04-17T11:54:34Z</time>
      </trkpt>
      <trkpt lat="42.49902" lon="2.17353">
        <ele>1315</ele>
        <time>2019-04-17T11:54:42Z</time>
      </trkpt>
      <trkpt lat="42.49896" lon="2.17364">
        <ele>1315</ele>
        <time>2019-04-17T11:54:50Z</time>
      </trkpt>
      <trkpt lat="42.49889" lon="2.17373">
        <ele>1315</ele>
        <time>2019-04-17T11:54:58Z</time>
      </trkpt>
      <trkpt lat="42.49883" lon="2.17383">
        <ele>1316</ele>
        <time>2019-04-17T11:55:08Z</time>
      </trkpt>
      <trkpt lat="42.49876" lon="2.17392">
        <ele>1318</ele>
        <time>2019-04-17T11:55:17Z</time>
      </trkpt>
      <trkpt lat="42.4987" lon="2.17401">
        <ele>1319</ele>
        <time>2019-04-17T11:55:25Z</time>
      </trkpt>
      <trkpt lat="42.49864" lon="2.17412">
        <ele>1318</ele>
        <time>2019-04-17T11:55:34Z</time>
      </trkpt>
      <trkpt lat="42.49861" lon="2.17426">
        <ele>1319</ele>
        <time>2019-04-17T11:55:44Z</time>
      </trkpt>
      <trkpt lat="42.49859" lon="2.17438">
        <ele>1319</ele>
        <time>2019-04-17T11:55:52Z</time>
      </trkpt>
      <trkpt lat="42.49857" lon="2.1745">
        <ele>1321</ele>
        <time>2019-04-17T11:56:00Z</time>
      </trkpt>
      <trkpt lat="42.49856" lon="2.17462">
        <ele>1322</ele>
        <time>2019-04-17T11:56:08Z</time>
      </trkpt>
      <trkpt lat="42.49856" lon="2.17475">
        <ele>1322</ele>
        <time>2019-04-17T11:56:17Z</time>
      </trkpt>
      <trkpt lat="42.49857" lon="2.17489">
        <ele>1323</ele>
        <time>2019-04-17T11:56:26Z</time>
      </trkpt>
      <trkpt lat="42.49858" lon="2.17501">
        <ele>1323</ele>
        <time>2019-04-17T11:56:35Z</time>
      </trkpt>
      <trkpt lat="42.49859" lon="2.17514">
        <ele>1323</ele>
        <time>2019-04-17T11:56:44Z</time>
      </trkpt>
      <trkpt lat="42.49862" lon="2.17527">
        <ele>1325</ele>
        <time>2019-04-17T11:56:53Z</time>
      </trkpt>
      <trkpt lat="42.49864" lon="2.17539">
        <ele>1325</ele>
        <time>2019-04-17T11:57:01Z</time>
      </trkpt>
      <trkpt lat="42.49866" lon="2.17551">
        <ele>1324</ele>
        <time>2019-04-17T11:57:11Z</time>
      </trkpt>
      <trkpt lat="42.49871" lon="2.17563">
        <ele>1324</ele>
        <time>2019-04-17T11:57:20Z</time>
      </trkpt>
      <trkpt lat="42.49878" lon="2.17573">
        <ele>1324</ele>
        <time>2019-04-17T11:57:29Z</time>
      </trkpt>
      <trkpt lat="42.49887" lon="2.17578">
        <ele>1323</ele>
        <time>2019-04-17T11:57:40Z</time>
      </trkpt>
      <trkpt lat="42.49896" lon="2.17581">
        <ele>1322</ele>
        <time>2019-04-17T11:57:48Z</time>
      </trkpt>
      <trkpt lat="42.49905" lon="2.17584">
        <ele>1321</ele>
        <time>2019-04-17T11:57:55Z</time>
      </trkpt>
      <trkpt lat="42.49913" lon="2.17591">
        <ele>1320</ele>
        <time>2019-04-17T11:58:02Z</time>
      </trkpt>
      <trkpt lat="42.49909" lon="2.17603">
        <ele>1321</ele>
        <time>2019-04-17T11:58:15Z</time>
      </trkpt>
      <trkpt lat="42.499" lon="2.17603">
        <ele>1322</ele>
        <time>2019-04-17T11:58:25Z</time>
      </trkpt>
      <trkpt lat="42.4989" lon="2.17599">
        <ele>1322</ele>
        <time>2019-04-17T11:58:34Z</time>
      </trkpt>
      <trkpt lat="42.49882" lon="2.17594">
        <ele>1322</ele>
        <time>2019-04-17T11:58:42Z</time>
      </trkpt>
      <trkpt lat="42.49872" lon="2.17593">
        <ele>1323</ele>
        <time>2019-04-17T11:58:52Z</time>
      </trkpt>
      <trkpt lat="42.49863" lon="2.17596">
        <ele>1322</ele>
        <time>2019-04-17T11:58:59Z</time>
      </trkpt>
      <trkpt lat="42.49854" lon="2.17594">
        <ele>1322</ele>
        <time>2019-04-17T11:59:07Z</time>
      </trkpt>
      <trkpt lat="42.49844" lon="2.17591">
        <ele>1322</ele>
        <time>2019-04-17T11:59:16Z</time>
      </trkpt>
      <trkpt lat="42.49834" lon="2.17589">
        <ele>1323</ele>
        <time>2019-04-17T11:59:24Z</time>
      </trkpt>
      <trkpt lat="42.49824" lon="2.1759">
        <ele>1324</ele>
        <time>2019-04-17T11:59:33Z</time>
      </trkpt>
      <trkpt lat="42.49815" lon="2.17584">
        <ele>1324</ele>
        <time>2019-04-17T11:59:42Z</time>
      </trkpt>
      <trkpt lat="42.49807" lon="2.17577">
        <ele>1326</ele>
        <time>2019-04-17T11:59:52Z</time>
      </trkpt>
      <trkpt lat="42.498" lon="2.17567">
        <ele>1327</ele>
        <time>2019-04-17T12:00:02Z</time>
      </trkpt>
      <trkpt lat="42.49792" lon="2.17559">
        <ele>1330</ele>
        <time>2019-04-17T12:00:12Z</time>
      </trkpt>
      <trkpt lat="42.49785" lon="2.17552">
        <ele>1332</ele>
        <time>2019-04-17T12:00:20Z</time>
      </trkpt>
      <trkpt lat="42.49777" lon="2.17544">
        <ele>1333</ele>
        <time>2019-04-17T12:00:29Z</time>
      </trkpt>
      <trkpt lat="42.49769" lon="2.17535">
        <ele>1335</ele>
        <time>2019-04-17T12:00:38Z</time>
      </trkpt>
      <trkpt lat="42.49762" lon="2.17527">
        <ele>1335</ele>
        <time>2019-04-17T12:00:45Z</time>
      </trkpt>
      <trkpt lat="42.49755" lon="2.1752">
        <ele>1336</ele>
        <time>2019-04-17T12:00:53Z</time>
      </trkpt>
      <trkpt lat="42.49746" lon="2.17511">
        <ele>1338</ele>
        <time>2019-04-17T12:01:01Z</time>
      </trkpt>
      <trkpt lat="42.49732" lon="2.17496">
        <ele>1341</ele>
        <time>2019-04-17T12:01:19Z</time>
      </trkpt>
      <trkpt lat="42.49724" lon="2.17489">
        <ele>1342</ele>
        <time>2019-04-17T12:01:28Z</time>
      </trkpt>
      <trkpt lat="42.49717" lon="2.17481">
        <ele>1343</ele>
        <time>2019-04-17T12:01:38Z</time>
      </trkpt>
      <trkpt lat="42.49709" lon="2.17473">
        <ele>1344</ele>
        <time>2019-04-17T12:01:46Z</time>
      </trkpt>
      <trkpt lat="42.49702" lon="2.17466">
        <ele>1345</ele>
        <time>2019-04-17T12:01:57Z</time>
      </trkpt>
      <trkpt lat="42.49696" lon="2.17455">
        <ele>1345</ele>
        <time>2019-04-17T12:02:04Z</time>
      </trkpt>
      <trkpt lat="42.4969" lon="2.17446">
        <ele>1346</ele>
        <time>2019-04-17T12:02:09Z</time>
      </trkpt>
      <trkpt lat="42.49683" lon="2.17437">
        <ele>1347</ele>
        <time>2019-04-17T12:02:20Z</time>
      </trkpt>
      <trkpt lat="42.49676" lon="2.17428">
        <ele>1348</ele>
        <time>2019-04-17T12:02:28Z</time>
      </trkpt>
      <trkpt lat="42.49672" lon="2.17417">
        <ele>1349</ele>
        <time>2019-04-17T12:02:36Z</time>
      </trkpt>
      <trkpt lat="42.49667" lon="2.17405">
        <ele>1350</ele>
        <time>2019-04-17T12:02:45Z</time>
      </trkpt>
      <trkpt lat="42.49664" lon="2.17392">
        <ele>1353</ele>
        <time>2019-04-17T12:02:54Z</time>
      </trkpt>
      <trkpt lat="42.4966" lon="2.17381">
        <ele>1354</ele>
        <time>2019-04-17T12:03:03Z</time>
      </trkpt>
      <trkpt lat="42.49657" lon="2.17369">
        <ele>1355</ele>
        <time>2019-04-17T12:03:14Z</time>
      </trkpt>
      <trkpt lat="42.49652" lon="2.17358">
        <ele>1357</ele>
        <time>2019-04-17T12:03:23Z</time>
      </trkpt>
      <trkpt lat="42.49646" lon="2.1735">
        <ele>1357</ele>
        <time>2019-04-17T12:03:32Z</time>
      </trkpt>
      <trkpt lat="42.49638" lon="2.17342">
        <ele>1358</ele>
        <time>2019-04-17T12:03:42Z</time>
      </trkpt>
      <trkpt lat="42.49631" lon="2.17333">
        <ele>1358</ele>
        <time>2019-04-17T12:03:50Z</time>
      </trkpt>
      <trkpt lat="42.49626" lon="2.17323">
        <ele>1358</ele>
        <time>2019-04-17T12:03:58Z</time>
      </trkpt>
      <trkpt lat="42.49619" lon="2.17313">
        <ele>1360</ele>
        <time>2019-04-17T12:04:09Z</time>
      </trkpt>
      <trkpt lat="42.49614" lon="2.17303">
        <ele>1362</ele>
        <time>2019-04-17T12:04:17Z</time>
      </trkpt>
      <trkpt lat="42.49606" lon="2.17294">
        <ele>1363</ele>
        <time>2019-04-17T12:04:26Z</time>
      </trkpt>
      <trkpt lat="42.49598" lon="2.17287">
        <ele>1364</ele>
        <time>2019-04-17T12:04:35Z</time>
      </trkpt>
      <trkpt lat="42.49589" lon="2.17283">
        <ele>1364</ele>
        <time>2019-04-17T12:05:00Z</time>
      </trkpt>
      <trkpt lat="42.49583" lon="2.17292">
        <ele>1366</ele>
        <time>2019-04-17T12:05:26Z</time>
      </trkpt>
      <trkpt lat="42.49574" lon="2.17293">
        <ele>1368</ele>
        <time>2019-04-17T12:05:41Z</time>
      </trkpt>
      <trkpt lat="42.49564" lon="2.17293">
        <ele>1371</ele>
        <time>2019-04-17T12:05:59Z</time>
      </trkpt>
      <trkpt lat="42.49555" lon="2.17291">
        <ele>1371</ele>
        <time>2019-04-17T12:06:12Z</time>
      </trkpt>
      <trkpt lat="42.49549" lon="2.17301">
        <ele>1372</ele>
        <time>2019-04-17T12:06:31Z</time>
      </trkpt>
      <trkpt lat="42.49543" lon="2.1731">
        <ele>1375</ele>
        <time>2019-04-17T12:06:43Z</time>
      </trkpt>
      <trkpt lat="42.49537" lon="2.1732">
        <ele>1379</ele>
        <time>2019-04-17T12:07:06Z</time>
      </trkpt>
      <trkpt lat="42.49533" lon="2.1733">
        <ele>1381</ele>
        <time>2019-04-17T12:07:29Z</time>
      </trkpt>
      <trkpt lat="42.49532" lon="2.17343">
        <ele>1382</ele>
        <time>2019-04-17T12:07:47Z</time>
      </trkpt>
      <trkpt lat="42.49533" lon="2.17355">
        <ele>1385</ele>
        <time>2019-04-17T12:08:06Z</time>
      </trkpt>
      <trkpt lat="42.49533" lon="2.17368">
        <ele>1386</ele>
        <time>2019-04-17T12:08:22Z</time>
      </trkpt>
      <trkpt lat="42.49528" lon="2.17378">
        <ele>1388</ele>
        <time>2019-04-17T12:08:35Z</time>
      </trkpt>
      <trkpt lat="42.49529" lon="2.1739">
        <ele>1389</ele>
        <time>2019-04-17T12:08:51Z</time>
      </trkpt>
      <trkpt lat="42.49529" lon="2.17403">
        <ele>1389</ele>
        <time>2019-04-17T12:09:03Z</time>
      </trkpt>
      <trkpt lat="42.49528" lon="2.17415">
        <ele>1388</ele>
        <time>2019-04-17T12:09:16Z</time>
      </trkpt>
      <trkpt lat="42.49533" lon="2.17426">
        <ele>1389</ele>
        <time>2019-04-17T12:09:26Z</time>
      </trkpt>
      <trkpt lat="42.49533" lon="2.17439">
        <ele>1391</ele>
        <time>2019-04-17T12:09:40Z</time>
      </trkpt>
      <trkpt lat="42.49537" lon="2.17451">
        <ele>1393</ele>
        <time>2019-04-17T12:09:57Z</time>
      </trkpt>
      <trkpt lat="42.49541" lon="2.17463">
        <ele>1399</ele>
        <time>2019-04-17T12:10:15Z</time>
      </trkpt>
      <trkpt lat="42.49543" lon="2.17475">
        <ele>1402</ele>
        <time>2019-04-17T12:10:30Z</time>
      </trkpt>
      <trkpt lat="42.49541" lon="2.17494">
        <ele>1412</ele>
        <time>2019-04-17T12:11:26Z</time>
      </trkpt>
      <trkpt lat="42.49541" lon="2.17506">
        <ele>1414</ele>
        <time>2019-04-17T12:11:46Z</time>
      </trkpt>
      <trkpt lat="42.49544" lon="2.17518">
        <ele>1417</ele>
        <time>2019-04-17T12:11:58Z</time>
      </trkpt>
      <trkpt lat="42.49546" lon="2.1753">
        <ele>1419</ele>
        <time>2019-04-17T12:12:14Z</time>
      </trkpt>
      <trkpt lat="42.49541" lon="2.1754">
        <ele>1419</ele>
        <time>2019-04-17T12:12:26Z</time>
      </trkpt>
      <trkpt lat="42.49542" lon="2.17553">
        <ele>1420</ele>
        <time>2019-04-17T12:12:41Z</time>
      </trkpt>
      <trkpt lat="42.49547" lon="2.17564">
        <ele>1422</ele>
        <time>2019-04-17T12:12:58Z</time>
      </trkpt>
      <trkpt lat="42.49546" lon="2.17576">
        <ele>1433</ele>
        <time>2019-04-17T12:13:50Z</time>
      </trkpt>
      <trkpt lat="42.49549" lon="2.17589">
        <ele>1448</ele>
        <time>2019-04-17T12:15:20Z</time>
      </trkpt>
      <trkpt lat="42.49542" lon="2.17601">
        <ele>1450</ele>
        <time>2019-04-17T12:15:50Z</time>
      </trkpt>
      <trkpt lat="42.49539" lon="2.17613">
        <ele>1454</ele>
        <time>2019-04-17T12:16:16Z</time>
      </trkpt>
      <trkpt lat="42.49541" lon="2.17626">
        <ele>1458</ele>
        <time>2019-04-17T12:16:42Z</time>
      </trkpt>
      <trkpt lat="42.49537" lon="2.17638">
        <ele>1464</ele>
        <time>2019-04-17T12:17:27Z</time>
      </trkpt>
      <trkpt lat="42.49534" lon="2.1765">
        <ele>1465</ele>
        <time>2019-04-17T12:17:43Z</time>
      </trkpt>
      <trkpt lat="42.49539" lon="2.1766">
        <ele>1466</ele>
        <time>2019-04-17T12:18:00Z</time>
      </trkpt>
      <trkpt lat="42.49543" lon="2.17671">
        <ele>1470</ele>
        <time>2019-04-17T12:18:32Z</time>
      </trkpt>
      <trkpt lat="42.49544" lon="2.17684">
        <ele>1478</ele>
        <time>2019-04-17T12:19:21Z</time>
      </trkpt>
      <trkpt lat="42.49545" lon="2.17696">
        <ele>1481</ele>
        <time>2019-04-17T12:19:49Z</time>
      </trkpt>
      <trkpt lat="42.49546" lon="2.17709">
        <ele>1484</ele>
        <time>2019-04-17T12:20:13Z</time>
      </trkpt>
      <trkpt lat="42.49546" lon="2.17721">
        <ele>1488</ele>
        <time>2019-04-17T12:20:38Z</time>
      </trkpt>
      <trkpt lat="42.49544" lon="2.17733">
        <ele>1490</ele>
        <time>2019-04-17T12:21:01Z</time>
      </trkpt>
      <trkpt lat="42.49546" lon="2.17748">
        <ele>1495</ele>
        <time>2019-04-17T12:21:36Z</time>
      </trkpt>
      <trkpt lat="42.49544" lon="2.1776">
        <ele>1497</ele>
        <time>2019-04-17T12:21:54Z</time>
      </trkpt>
      <trkpt lat="42.49544" lon="2.17773">
        <ele>1500</ele>
        <time>2019-04-17T12:22:15Z</time>
      </trkpt>
      <trkpt lat="42.49541" lon="2.17784">
        <ele>1502</ele>
        <time>2019-04-17T12:22:30Z</time>
      </trkpt>
      <trkpt lat="42.49549" lon="2.17791">
        <ele>1504</ele>
        <time>2019-04-17T12:22:42Z</time>
      </trkpt>
      <trkpt lat="42.49549" lon="2.17803">
        <ele>1506</ele>
        <time>2019-04-17T12:23:09Z</time>
      </trkpt>
      <trkpt lat="42.49548" lon="2.17816">
        <ele>1509</ele>
        <time>2019-04-17T12:23:26Z</time>
      </trkpt>
      <trkpt lat="42.49555" lon="2.17826">
        <ele>1510</ele>
        <time>2019-04-17T12:23:38Z</time>
      </trkpt>
      <trkpt lat="42.49554" lon="2.17838">
        <ele>1512</ele>
        <time>2019-04-17T12:23:57Z</time>
      </trkpt>
      <trkpt lat="42.49558" lon="2.17849">
        <ele>1514</ele>
        <time>2019-04-17T12:24:19Z</time>
      </trkpt>
      <trkpt lat="42.49565" lon="2.17857">
        <ele>1516</ele>
        <time>2019-04-17T12:24:33Z</time>
      </trkpt>
      <trkpt lat="42.49567" lon="2.17869">
        <ele>1519</ele>
        <time>2019-04-17T12:24:51Z</time>
      </trkpt>
      <trkpt lat="42.49573" lon="2.17879">
        <ele>1520</ele>
        <time>2019-04-17T12:25:10Z</time>
      </trkpt>
      <trkpt lat="42.49574" lon="2.17892">
        <ele>1521</ele>
        <time>2019-04-17T12:25:25Z</time>
      </trkpt>
      <trkpt lat="42.49579" lon="2.17902">
        <ele>1524</ele>
        <time>2019-04-17T12:25:41Z</time>
      </trkpt>
      <trkpt lat="42.49582" lon="2.17914">
        <ele>1528</ele>
        <time>2019-04-17T12:26:01Z</time>
      </trkpt>
      <trkpt lat="42.49587" lon="2.17925">
        <ele>1531</ele>
        <time>2019-04-17T12:26:30Z</time>
      </trkpt>
      <trkpt lat="42.49593" lon="2.17935">
        <ele>1533</ele>
        <time>2019-04-17T12:26:55Z</time>
      </trkpt>
      <trkpt lat="42.496" lon="2.17945">
        <ele>1537</ele>
        <time>2019-04-17T12:27:14Z</time>
      </trkpt>
      <trkpt lat="42.496" lon="2.17957">
        <ele>1538</ele>
        <time>2019-04-17T12:27:36Z</time>
      </trkpt>
      <trkpt lat="42.49603" lon="2.17969">
        <ele>1542</ele>
        <time>2019-04-17T12:27:55Z</time>
      </trkpt>
      <trkpt lat="42.49607" lon="2.17981">
        <ele>1546</ele>
        <time>2019-04-17T12:28:17Z</time>
      </trkpt>
      <trkpt lat="42.49614" lon="2.17988">
        <ele>1549</ele>
        <time>2019-04-17T12:28:30Z</time>
      </trkpt>
      <trkpt lat="42.49611" lon="2.18">
        <ele>1552</ele>
        <time>2019-04-17T12:28:47Z</time>
      </trkpt>
      <trkpt lat="42.49619" lon="2.18007">
        <ele>1554</ele>
        <time>2019-04-17T12:28:58Z</time>
      </trkpt>
      <trkpt lat="42.49616" lon="2.18019">
        <ele>1558</ele>
        <time>2019-04-17T12:29:22Z</time>
      </trkpt>
      <trkpt lat="42.49613" lon="2.18031">
        <ele>1562</ele>
        <time>2019-04-17T12:29:37Z</time>
      </trkpt>
      <trkpt lat="42.49609" lon="2.18042">
        <ele>1563</ele>
        <time>2019-04-17T12:29:54Z</time>
      </trkpt>
      <trkpt lat="42.49613" lon="2.18054">
        <ele>1566</ele>
        <time>2019-04-17T12:30:05Z</time>
      </trkpt>
      <trkpt lat="42.49604" lon="2.18047">
        <ele>1572</ele>
        <time>2019-04-17T12:30:45Z</time>
      </trkpt>
      <trkpt lat="42.49594" lon="2.18047">
        <ele>1572</ele>
        <time>2019-04-17T12:30:56Z</time>
      </trkpt>
      <trkpt lat="42.49585" lon="2.18047">
        <ele>1575</ele>
        <time>2019-04-17T12:31:09Z</time>
      </trkpt>
      <trkpt lat="42.49576" lon="2.18045">
        <ele>1576</ele>
        <time>2019-04-17T12:31:22Z</time>
      </trkpt>
      <trkpt lat="42.49567" lon="2.18046">
        <ele>1577</ele>
        <time>2019-04-17T12:31:42Z</time>
      </trkpt>
      <trkpt lat="42.49558" lon="2.18047">
        <ele>1580</ele>
        <time>2019-04-17T12:32:03Z</time>
      </trkpt>
      <trkpt lat="42.49548" lon="2.18047">
        <ele>1581</ele>
        <time>2019-04-17T12:32:18Z</time>
      </trkpt>
      <trkpt lat="42.49541" lon="2.18054">
        <ele>1583</ele>
        <time>2019-04-17T12:32:32Z</time>
      </trkpt>
      <trkpt lat="42.49532" lon="2.18058">
        <ele>1585</ele>
        <time>2019-04-17T12:32:53Z</time>
      </trkpt>
      <trkpt lat="42.49523" lon="2.18061">
        <ele>1588</ele>
        <time>2019-04-17T12:33:12Z</time>
      </trkpt>
      <trkpt lat="42.49514" lon="2.18066">
        <ele>1591</ele>
        <time>2019-04-17T12:33:31Z</time>
      </trkpt>
      <trkpt lat="42.49505" lon="2.1807">
        <ele>1593</ele>
        <time>2019-04-17T12:33:50Z</time>
      </trkpt>
      <trkpt lat="42.49496" lon="2.18071">
        <ele>1596</ele>
        <time>2019-04-17T12:34:10Z</time>
      </trkpt>
      <trkpt lat="42.49489" lon="2.18079">
        <ele>1599</ele>
        <time>2019-04-17T12:34:23Z</time>
      </trkpt>
      <trkpt lat="42.4948" lon="2.18081">
        <ele>1601</ele>
        <time>2019-04-17T12:34:40Z</time>
      </trkpt>
      <trkpt lat="42.49471" lon="2.18087">
        <ele>1604</ele>
        <time>2019-04-17T12:35:06Z</time>
      </trkpt>
      <trkpt lat="42.49465" lon="2.18096">
        <ele>1607</ele>
        <time>2019-04-17T12:35:19Z</time>
      </trkpt>
      <trkpt lat="42.49456" lon="2.18099">
        <ele>1608</ele>
        <time>2019-04-17T12:35:37Z</time>
      </trkpt>
      <trkpt lat="42.49448" lon="2.18105">
        <ele>1610</ele>
        <time>2019-04-17T12:35:51Z</time>
      </trkpt>
      <trkpt lat="42.49439" lon="2.1811">
        <ele>1612</ele>
        <time>2019-04-17T12:36:11Z</time>
      </trkpt>
      <trkpt lat="42.49433" lon="2.1812">
        <ele>1613</ele>
        <time>2019-04-17T12:36:30Z</time>
      </trkpt>
      <trkpt lat="42.49424" lon="2.18119">
        <ele>1614</ele>
        <time>2019-04-17T12:36:39Z</time>
      </trkpt>
      <trkpt lat="42.49415" lon="2.18122">
        <ele>1615</ele>
        <time>2019-04-17T12:37:00Z</time>
      </trkpt>
      <trkpt lat="42.49409" lon="2.18133">
        <ele>1618</ele>
        <time>2019-04-17T12:37:15Z</time>
      </trkpt>
      <trkpt lat="42.49401" lon="2.1814">
        <ele>1622</ele>
        <time>2019-04-17T12:37:42Z</time>
      </trkpt>
      <trkpt lat="42.49393" lon="2.18145">
        <ele>1624</ele>
        <time>2019-04-17T12:38:01Z</time>
      </trkpt>
      <trkpt lat="42.49387" lon="2.18155">
        <ele>1629</ele>
        <time>2019-04-17T12:38:19Z</time>
      </trkpt>
      <trkpt lat="42.49379" lon="2.18162">
        <ele>1631</ele>
        <time>2019-04-17T12:38:37Z</time>
      </trkpt>
      <trkpt lat="42.4937" lon="2.18166">
        <ele>1633</ele>
        <time>2019-04-17T12:38:54Z</time>
      </trkpt>
      <trkpt lat="42.49366" lon="2.18177">
        <ele>1633</ele>
        <time>2019-04-17T12:39:08Z</time>
      </trkpt>
      <trkpt lat="42.49357" lon="2.18181">
        <ele>1637</ele>
        <time>2019-04-17T12:39:26Z</time>
      </trkpt>
      <trkpt lat="42.49349" lon="2.18186">
        <ele>1639</ele>
        <time>2019-04-17T12:39:35Z</time>
      </trkpt>
      <trkpt lat="42.4934" lon="2.18186">
        <ele>1642</ele>
        <time>2019-04-17T12:39:54Z</time>
      </trkpt>
      <trkpt lat="42.49331" lon="2.18189">
        <ele>1644</ele>
        <time>2019-04-17T12:40:16Z</time>
      </trkpt>
      <trkpt lat="42.49324" lon="2.18198">
        <ele>1648</ele>
        <time>2019-04-17T12:40:31Z</time>
      </trkpt>
      <trkpt lat="42.49317" lon="2.18207">
        <ele>1651</ele>
        <time>2019-04-17T12:40:54Z</time>
      </trkpt>
      <trkpt lat="42.4931" lon="2.18216">
        <ele>1653</ele>
        <time>2019-04-17T12:41:08Z</time>
      </trkpt>
      <trkpt lat="42.49302" lon="2.18223">
        <ele>1657</ele>
        <time>2019-04-17T12:41:38Z</time>
      </trkpt>
      <trkpt lat="42.49294" lon="2.1823">
        <ele>1661</ele>
        <time>2019-04-17T12:42:00Z</time>
      </trkpt>
      <trkpt lat="42.49287" lon="2.18238">
        <ele>1664</ele>
        <time>2019-04-17T12:42:20Z</time>
      </trkpt>
      <trkpt lat="42.49281" lon="2.18248">
        <ele>1668</ele>
        <time>2019-04-17T12:42:43Z</time>
      </trkpt>
      <trkpt lat="42.49278" lon="2.18259">
        <ele>1671</ele>
        <time>2019-04-17T12:43:02Z</time>
      </trkpt>
      <trkpt lat="42.4927" lon="2.18267">
        <ele>1673</ele>
        <time>2019-04-17T12:43:16Z</time>
      </trkpt>
      <trkpt lat="42.49266" lon="2.18277">
        <ele>1676</ele>
        <time>2019-04-17T12:43:37Z</time>
      </trkpt>
      <trkpt lat="42.49261" lon="2.18288">
        <ele>1680</ele>
        <time>2019-04-17T12:44:05Z</time>
      </trkpt>
      <trkpt lat="42.49259" lon="2.183">
        <ele>1683</ele>
        <time>2019-04-17T12:44:24Z</time>
      </trkpt>
      <trkpt lat="42.49252" lon="2.18309">
        <ele>1687</ele>
        <time>2019-04-17T12:44:41Z</time>
      </trkpt>
      <trkpt lat="42.49249" lon="2.18321">
        <ele>1690</ele>
        <time>2019-04-17T12:44:58Z</time>
      </trkpt>
      <trkpt lat="42.49247" lon="2.18333">
        <ele>1692</ele>
        <time>2019-04-17T12:45:25Z</time>
      </trkpt>
      <trkpt lat="42.49244" lon="2.18345">
        <ele>1695</ele>
        <time>2019-04-17T12:45:42Z</time>
      </trkpt>
      <trkpt lat="42.49237" lon="2.18352">
        <ele>1699</ele>
        <time>2019-04-17T12:46:01Z</time>
      </trkpt>
      <trkpt lat="42.49231" lon="2.18362">
        <ele>1702</ele>
        <time>2019-04-17T12:46:22Z</time>
      </trkpt>
      <trkpt lat="42.49223" lon="2.1837">
        <ele>1704</ele>
        <time>2019-04-17T12:46:40Z</time>
      </trkpt>
      <trkpt lat="42.49215" lon="2.18376">
        <ele>1706</ele>
        <time>2019-04-17T12:47:09Z</time>
      </trkpt>
      <trkpt lat="42.49207" lon="2.18382">
        <ele>1708</ele>
        <time>2019-04-17T12:47:30Z</time>
      </trkpt>
      <trkpt lat="42.49198" lon="2.18389">
        <ele>1709</ele>
        <time>2019-04-17T12:47:47Z</time>
      </trkpt>
      <trkpt lat="42.49189" lon="2.18387">
        <ele>1711</ele>
        <time>2019-04-17T12:47:58Z</time>
      </trkpt>
      <trkpt lat="42.4918" lon="2.18385">
        <ele>1714</ele>
        <time>2019-04-17T12:48:11Z</time>
      </trkpt>
      <trkpt lat="42.4917" lon="2.18384">
        <ele>1718</ele>
        <time>2019-04-17T12:48:45Z</time>
      </trkpt>
      <trkpt lat="42.49155" lon="2.1839">
        <ele>1719</ele>
        <time>2019-04-17T12:49:01Z</time>
      </trkpt>
      <trkpt lat="42.49146" lon="2.18396">
        <ele>1720</ele>
        <time>2019-04-17T12:49:12Z</time>
      </trkpt>
      <trkpt lat="42.49137" lon="2.18401">
        <ele>1721</ele>
        <time>2019-04-17T12:49:23Z</time>
      </trkpt>
      <trkpt lat="42.49128" lon="2.18408">
        <ele>1721</ele>
        <time>2019-04-17T12:49:31Z</time>
      </trkpt>
      <trkpt lat="42.49119" lon="2.18412">
        <ele>1723</ele>
        <time>2019-04-17T12:49:59Z</time>
      </trkpt>
      <trkpt lat="42.49113" lon="2.1842">
        <ele>1725</ele>
        <time>2019-04-17T12:50:10Z</time>
      </trkpt>
      <trkpt lat="42.49107" lon="2.18431">
        <ele>1726</ele>
        <time>2019-04-17T12:50:16Z</time>
      </trkpt>
      <trkpt lat="42.491" lon="2.18438">
        <ele>1730</ele>
        <time>2019-04-17T12:50:33Z</time>
      </trkpt>
      <trkpt lat="42.49094" lon="2.18448">
        <ele>1735</ele>
        <time>2019-04-17T12:50:59Z</time>
      </trkpt>
      <trkpt lat="42.49087" lon="2.18456">
        <ele>1737</ele>
        <time>2019-04-17T12:51:14Z</time>
      </trkpt>
      <trkpt lat="42.49079" lon="2.18463">
        <ele>1739</ele>
        <time>2019-04-17T12:51:28Z</time>
      </trkpt>
      <trkpt lat="42.4907" lon="2.18461">
        <ele>1740</ele>
        <time>2019-04-17T12:51:39Z</time>
      </trkpt>
      <trkpt lat="42.4906" lon="2.18461">
        <ele>1741</ele>
        <time>2019-04-17T12:51:46Z</time>
      </trkpt>
      <trkpt lat="42.49052" lon="2.18458">
        <ele>1743</ele>
        <time>2019-04-17T12:51:59Z</time>
      </trkpt>
      <trkpt lat="42.49043" lon="2.18456">
        <ele>1744</ele>
        <time>2019-04-17T12:52:12Z</time>
      </trkpt>
      <trkpt lat="42.49033" lon="2.1846">
        <ele>1746</ele>
        <time>2019-04-17T12:52:19Z</time>
      </trkpt>
      <trkpt lat="42.49024" lon="2.18461">
        <ele>1746</ele>
        <time>2019-04-17T12:52:29Z</time>
      </trkpt>
      <trkpt lat="42.49014" lon="2.1846">
        <ele>1748</ele>
        <time>2019-04-17T12:52:45Z</time>
      </trkpt>
      <trkpt lat="42.49006" lon="2.18465">
        <ele>1750</ele>
        <time>2019-04-17T12:52:57Z</time>
      </trkpt>
      <trkpt lat="42.49" lon="2.18475">
        <ele>1753</ele>
        <time>2019-04-17T12:53:20Z</time>
      </trkpt>
      <trkpt lat="42.48995" lon="2.18486">
        <ele>1756</ele>
        <time>2019-04-17T12:53:38Z</time>
      </trkpt>
      <trkpt lat="42.48987" lon="2.18492">
        <ele>1759</ele>
        <time>2019-04-17T12:54:02Z</time>
      </trkpt>
      <trkpt lat="42.48979" lon="2.18499">
        <ele>1762</ele>
        <time>2019-04-17T12:54:25Z</time>
      </trkpt>
      <trkpt lat="42.48976" lon="2.1851">
        <ele>1765</ele>
        <time>2019-04-17T12:54:47Z</time>
      </trkpt>
      <trkpt lat="42.48969" lon="2.18518">
        <ele>1766</ele>
        <time>2019-04-17T12:55:03Z</time>
      </trkpt>
      <trkpt lat="42.4896" lon="2.18522">
        <ele>1770</ele>
        <time>2019-04-17T12:55:32Z</time>
      </trkpt>
      <trkpt lat="42.48953" lon="2.18532">
        <ele>1773</ele>
        <time>2019-04-17T12:55:52Z</time>
      </trkpt>
      <trkpt lat="42.48945" lon="2.18536">
        <ele>1778</ele>
        <time>2019-04-17T12:56:20Z</time>
      </trkpt>
      <trkpt lat="42.48937" lon="2.18543">
        <ele>1780</ele>
        <time>2019-04-17T12:56:50Z</time>
      </trkpt>
      <trkpt lat="42.48931" lon="2.18553">
        <ele>1783</ele>
        <time>2019-04-17T12:57:12Z</time>
      </trkpt>
      <trkpt lat="42.48923" lon="2.18559">
        <ele>1786</ele>
        <time>2019-04-17T12:57:37Z</time>
      </trkpt>
      <trkpt lat="42.48918" lon="2.18569">
        <ele>1787</ele>
        <time>2019-04-17T12:58:02Z</time>
      </trkpt>
      <trkpt lat="42.4891" lon="2.18575">
        <ele>1788</ele>
        <time>2019-04-17T12:58:17Z</time>
      </trkpt>
      <trkpt lat="42.489" lon="2.18575">
        <ele>1789</ele>
        <time>2019-04-17T12:58:33Z</time>
      </trkpt>
      <trkpt lat="42.48891" lon="2.18578">
        <ele>1791</ele>
        <time>2019-04-17T12:58:42Z</time>
      </trkpt>
      <trkpt lat="42.48882" lon="2.18583">
        <ele>1792</ele>
        <time>2019-04-17T12:58:54Z</time>
      </trkpt>
      <trkpt lat="42.48876" lon="2.18574">
        <ele>1794</ele>
        <time>2019-04-17T12:59:03Z</time>
      </trkpt>
      <trkpt lat="42.48866" lon="2.1857">
        <ele>1796</ele>
        <time>2019-04-17T12:59:24Z</time>
      </trkpt>
      <trkpt lat="42.48856" lon="2.18574">
        <ele>1797</ele>
        <time>2019-04-17T12:59:33Z</time>
      </trkpt>
      <trkpt lat="42.48858" lon="2.18587">
        <ele>1796</ele>
        <time>2019-04-17T12:59:39Z</time>
      </trkpt>
      <trkpt lat="42.48848" lon="2.18585">
        <ele>1798</ele>
        <time>2019-04-17T12:59:48Z</time>
      </trkpt>
      <trkpt lat="42.48839" lon="2.18583">
        <ele>1797</ele>
        <time>2019-04-17T12:59:54Z</time>
      </trkpt>
      <trkpt lat="42.4883" lon="2.18581">
        <ele>1800</ele>
        <time>2019-04-17T13:00:08Z</time>
      </trkpt>
      <trkpt lat="42.4882" lon="2.18584">
        <ele>1803</ele>
        <time>2019-04-17T13:00:34Z</time>
      </trkpt>
      <trkpt lat="42.48811" lon="2.18589">
        <ele>1805</ele>
        <time>2019-04-17T13:00:43Z</time>
      </trkpt>
      <trkpt lat="42.48803" lon="2.18595">
        <ele>1807</ele>
        <time>2019-04-17T13:01:14Z</time>
      </trkpt>
      <trkpt lat="42.48795" lon="2.18602">
        <ele>1810</ele>
        <time>2019-04-17T13:01:29Z</time>
      </trkpt>
      <trkpt lat="42.48787" lon="2.1861">
        <ele>1815</ele>
        <time>2019-04-17T13:02:01Z</time>
      </trkpt>
      <trkpt lat="42.4878" lon="2.18619">
        <ele>1818</ele>
        <time>2019-04-17T13:02:15Z</time>
      </trkpt>
      <trkpt lat="42.48772" lon="2.18624">
        <ele>1819</ele>
        <time>2019-04-17T13:02:37Z</time>
      </trkpt>
      <trkpt lat="42.48768" lon="2.18636">
        <ele>1822</ele>
        <time>2019-04-17T13:02:49Z</time>
      </trkpt>
      <trkpt lat="42.48771" lon="2.18648">
        <ele>1823</ele>
        <time>2019-04-17T13:03:02Z</time>
      </trkpt>
      <trkpt lat="42.48765" lon="2.18657">
        <ele>1824</ele>
        <time>2019-04-17T13:03:19Z</time>
      </trkpt>
      <trkpt lat="42.48758" lon="2.18679">
        <ele>1830</ele>
        <time>2019-04-17T13:03:54Z</time>
      </trkpt>
      <trkpt lat="42.48749" lon="2.18686">
        <ele>1833</ele>
        <time>2019-04-17T13:04:11Z</time>
      </trkpt>
      <trkpt lat="42.48744" lon="2.18696">
        <ele>1839</ele>
        <time>2019-04-17T13:04:40Z</time>
      </trkpt>
      <trkpt lat="42.48736" lon="2.18702">
        <ele>1842</ele>
        <time>2019-04-17T13:05:08Z</time>
      </trkpt>
      <trkpt lat="42.48727" lon="2.18708">
        <ele>1846</ele>
        <time>2019-04-17T13:05:31Z</time>
      </trkpt>
      <trkpt lat="42.4872" lon="2.18716">
        <ele>1846</ele>
        <time>2019-04-17T13:05:40Z</time>
      </trkpt>
      <trkpt lat="42.48712" lon="2.18723">
        <ele>1847</ele>
        <time>2019-04-17T13:05:55Z</time>
      </trkpt>
      <trkpt lat="42.48703" lon="2.18727">
        <ele>1850</ele>
        <time>2019-04-17T13:06:16Z</time>
      </trkpt>
      <trkpt lat="42.48696" lon="2.18734">
        <ele>1852</ele>
        <time>2019-04-17T13:06:37Z</time>
      </trkpt>
      <trkpt lat="42.48688" lon="2.18741">
        <ele>1854</ele>
        <time>2019-04-17T13:06:50Z</time>
      </trkpt>
      <trkpt lat="42.48682" lon="2.18751">
        <ele>1856</ele>
        <time>2019-04-17T13:07:05Z</time>
      </trkpt>
      <trkpt lat="42.48677" lon="2.18762">
        <ele>1857</ele>
        <time>2019-04-17T13:07:17Z</time>
      </trkpt>
      <trkpt lat="42.48672" lon="2.18772">
        <ele>1858</ele>
        <time>2019-04-17T13:07:31Z</time>
      </trkpt>
      <trkpt lat="42.48665" lon="2.18781">
        <ele>1859</ele>
        <time>2019-04-17T13:07:44Z</time>
      </trkpt>
      <trkpt lat="42.4866" lon="2.18792">
        <ele>1861</ele>
        <time>2019-04-17T13:08:05Z</time>
      </trkpt>
      <trkpt lat="42.48655" lon="2.18802">
        <ele>1865</ele>
        <time>2019-04-17T13:08:27Z</time>
      </trkpt>
      <trkpt lat="42.48655" lon="2.18815">
        <ele>1868</ele>
        <time>2019-04-17T13:08:51Z</time>
      </trkpt>
      <trkpt lat="42.48651" lon="2.18826">
        <ele>1870</ele>
        <time>2019-04-17T13:09:10Z</time>
      </trkpt>
      <trkpt lat="42.48646" lon="2.18837">
        <ele>1873</ele>
        <time>2019-04-17T13:09:34Z</time>
      </trkpt>
      <trkpt lat="42.48645" lon="2.1885">
        <ele>1875</ele>
        <time>2019-04-17T13:09:48Z</time>
      </trkpt>
      <trkpt lat="42.48639" lon="2.18859">
        <ele>1880</ele>
        <time>2019-04-17T13:10:11Z</time>
      </trkpt>
      <trkpt lat="42.48633" lon="2.18868">
        <ele>1883</ele>
        <time>2019-04-17T13:10:30Z</time>
      </trkpt>
      <trkpt lat="42.48624" lon="2.18873">
        <ele>1883</ele>
        <time>2019-04-17T13:10:43Z</time>
      </trkpt>
      <trkpt lat="42.48615" lon="2.1888">
        <ele>1887</ele>
        <time>2019-04-17T13:12:41Z</time>
      </trkpt>
      <trkpt lat="42.48608" lon="2.18883">
        <ele>1890</ele>
        <time>2019-04-17T13:20:54Z</time>
      </trkpt>
      <trkpt lat="42.48599" lon="2.18881">
        <ele>1889</ele>
        <time>2019-04-17T13:21:04Z</time>
      </trkpt>
      <trkpt lat="42.48589" lon="2.1888">
        <ele>1889</ele>
        <time>2019-04-17T13:21:10Z</time>
      </trkpt>
      <trkpt lat="42.4858" lon="2.18878">
        <ele>1889</ele>
        <time>2019-04-17T13:21:15Z</time>
      </trkpt>
      <trkpt lat="42.48575" lon="2.18867">
        <ele>1889</ele>
        <time>2019-04-17T13:21:28Z</time>
      </trkpt>
      <trkpt lat="42.48566" lon="2.18868">
        <ele>1890</ele>
        <time>2019-04-17T13:21:35Z</time>
      </trkpt>
      <trkpt lat="42.48556" lon="2.18865">
        <ele>1890</ele>
        <time>2019-04-17T13:21:43Z</time>
      </trkpt>
      <trkpt lat="42.48546" lon="2.18862">
        <ele>1890</ele>
        <time>2019-04-17T13:21:55Z</time>
      </trkpt>
      <trkpt lat="42.48535" lon="2.18863">
        <ele>1891</ele>
        <time>2019-04-17T13:22:08Z</time>
      </trkpt>
      <trkpt lat="42.48526" lon="2.18868">
        <ele>1891</ele>
        <time>2019-04-17T13:22:15Z</time>
      </trkpt>
      <trkpt lat="42.48509" lon="2.1888">
        <ele>1890</ele>
        <time>2019-04-17T13:22:26Z</time>
      </trkpt>
      <trkpt lat="42.485" lon="2.18878">
        <ele>1891</ele>
        <time>2019-04-17T13:22:33Z</time>
      </trkpt>
      <trkpt lat="42.48491" lon="2.18881">
        <ele>1891</ele>
        <time>2019-04-17T13:22:40Z</time>
      </trkpt>
      <trkpt lat="42.48484" lon="2.18889">
        <ele>1892</ele>
        <time>2019-04-17T13:22:50Z</time>
      </trkpt>
      <trkpt lat="42.48475" lon="2.18895">
        <ele>1894</ele>
        <time>2019-04-17T13:22:59Z</time>
      </trkpt>
      <trkpt lat="42.48467" lon="2.18902">
        <ele>1895</ele>
        <time>2019-04-17T13:23:04Z</time>
      </trkpt>
      <trkpt lat="42.48459" lon="2.18909">
        <ele>1895</ele>
        <time>2019-04-17T13:23:12Z</time>
      </trkpt>
      <trkpt lat="42.48455" lon="2.1892">
        <ele>1897</ele>
        <time>2019-04-17T13:23:39Z</time>
      </trkpt>
      <trkpt lat="42.48448" lon="2.18929">
        <ele>1899</ele>
        <time>2019-04-17T13:24:02Z</time>
      </trkpt>
      <trkpt lat="42.4844" lon="2.18937">
        <ele>1901</ele>
        <time>2019-04-17T13:24:18Z</time>
      </trkpt>
      <trkpt lat="42.48433" lon="2.18944">
        <ele>1902</ele>
        <time>2019-04-17T13:24:47Z</time>
      </trkpt>
      <trkpt lat="42.48429" lon="2.18955">
        <ele>1905</ele>
        <time>2019-04-17T13:25:17Z</time>
      </trkpt>
      <trkpt lat="42.48425" lon="2.18966">
        <ele>1910</ele>
        <time>2019-04-17T13:25:55Z</time>
      </trkpt>
      <trkpt lat="42.48419" lon="2.18975">
        <ele>1912</ele>
        <time>2019-04-17T13:26:28Z</time>
      </trkpt>
      <trkpt lat="42.48412" lon="2.18984">
        <ele>1915</ele>
        <time>2019-04-17T13:27:07Z</time>
      </trkpt>
      <trkpt lat="42.48405" lon="2.18993">
        <ele>1916</ele>
        <time>2019-04-17T13:27:36Z</time>
      </trkpt>
      <trkpt lat="42.48395" lon="2.19013">
        <ele>1924</ele>
        <time>2019-04-17T13:28:43Z</time>
      </trkpt>
      <trkpt lat="42.48392" lon="2.19025">
        <ele>1927</ele>
        <time>2019-04-17T13:29:08Z</time>
      </trkpt>
      <trkpt lat="42.48384" lon="2.19031">
        <ele>1931</ele>
        <time>2019-04-17T13:29:31Z</time>
      </trkpt>
      <trkpt lat="42.48376" lon="2.19038">
        <ele>1934</ele>
        <time>2019-04-17T13:29:52Z</time>
      </trkpt>
      <trkpt lat="42.48367" lon="2.19041">
        <ele>1934</ele>
        <time>2019-04-17T13:30:09Z</time>
      </trkpt>
      <trkpt lat="42.4837" lon="2.19053">
        <ele>1936</ele>
        <time>2019-04-17T13:30:42Z</time>
      </trkpt>
      <trkpt lat="42.48368" lon="2.19066">
        <ele>1938</ele>
        <time>2019-04-17T13:30:52Z</time>
      </trkpt>
      <trkpt lat="42.48365" lon="2.1909">
        <ele>1946</ele>
        <time>2019-04-17T13:31:54Z</time>
      </trkpt>
      <trkpt lat="42.48361" lon="2.19101">
        <ele>1946</ele>
        <time>2019-04-17T13:32:16Z</time>
      </trkpt>
      <trkpt lat="42.48356" lon="2.19111">
        <ele>1948</ele>
        <time>2019-04-17T13:32:38Z</time>
      </trkpt>
      <trkpt lat="42.48352" lon="2.19122">
        <ele>1952</ele>
        <time>2019-04-17T13:33:03Z</time>
      </trkpt>
      <trkpt lat="42.48345" lon="2.1913">
        <ele>1954</ele>
        <time>2019-04-17T13:33:20Z</time>
      </trkpt>
      <trkpt lat="42.48337" lon="2.19138">
        <ele>1958</ele>
        <time>2019-04-17T13:33:45Z</time>
      </trkpt>
      <trkpt lat="42.48332" lon="2.19147">
        <ele>1961</ele>
        <time>2019-04-17T13:34:14Z</time>
      </trkpt>
      <trkpt lat="42.48323" lon="2.19154">
        <ele>1961</ele>
        <time>2019-04-17T13:34:26Z</time>
      </trkpt>
      <trkpt lat="42.48314" lon="2.19152">
        <ele>1963</ele>
        <time>2019-04-17T13:34:41Z</time>
      </trkpt>
      <trkpt lat="42.48305" lon="2.19156">
        <ele>1966</ele>
        <time>2019-04-17T13:34:58Z</time>
      </trkpt>
      <trkpt lat="42.48295" lon="2.19157">
        <ele>1967</ele>
        <time>2019-04-17T13:35:06Z</time>
      </trkpt>
      <trkpt lat="42.4828" lon="2.19155">
        <ele>1969</ele>
        <time>2019-04-17T13:35:24Z</time>
      </trkpt>
      <trkpt lat="42.4827" lon="2.19155">
        <ele>1968</ele>
        <time>2019-04-17T13:35:36Z</time>
      </trkpt>
      <trkpt lat="42.48261" lon="2.19158">
        <ele>1968</ele>
        <time>2019-04-17T13:35:44Z</time>
      </trkpt>
      <trkpt lat="42.48252" lon="2.19162">
        <ele>1968</ele>
        <time>2019-04-17T13:35:53Z</time>
      </trkpt>
      <trkpt lat="42.48244" lon="2.19167">
        <ele>1968</ele>
        <time>2019-04-17T13:36:00Z</time>
      </trkpt>
      <trkpt lat="42.48234" lon="2.1917">
        <ele>1969</ele>
        <time>2019-04-17T13:36:10Z</time>
      </trkpt>
      <trkpt lat="42.48229" lon="2.19181">
        <ele>1969</ele>
        <time>2019-04-17T13:36:26Z</time>
      </trkpt>
      <trkpt lat="42.48221" lon="2.19187">
        <ele>1969</ele>
        <time>2019-04-17T13:36:38Z</time>
      </trkpt>
      <trkpt lat="42.48214" lon="2.19195">
        <ele>1970</ele>
        <time>2019-04-17T13:36:58Z</time>
      </trkpt>
      <trkpt lat="42.48209" lon="2.19206">
        <ele>1971</ele>
        <time>2019-04-17T13:37:09Z</time>
      </trkpt>
      <trkpt lat="42.48205" lon="2.19217">
        <ele>1972</ele>
        <time>2019-04-17T13:37:35Z</time>
      </trkpt>
      <trkpt lat="42.482" lon="2.19227">
        <ele>1973</ele>
        <time>2019-04-17T13:37:51Z</time>
      </trkpt>
      <trkpt lat="42.48195" lon="2.19237">
        <ele>1972</ele>
        <time>2019-04-17T13:38:05Z</time>
      </trkpt>
      <trkpt lat="42.48187" lon="2.19245">
        <ele>1972</ele>
        <time>2019-04-17T13:38:20Z</time>
      </trkpt>
      <trkpt lat="42.48178" lon="2.1925">
        <ele>1973</ele>
        <time>2019-04-17T13:38:28Z</time>
      </trkpt>
      <trkpt lat="42.48169" lon="2.1925">
        <ele>1974</ele>
        <time>2019-04-17T13:38:37Z</time>
      </trkpt>
      <trkpt lat="42.4816" lon="2.19249">
        <ele>1974</ele>
        <time>2019-04-17T13:38:52Z</time>
      </trkpt>
      <trkpt lat="42.48151" lon="2.19243">
        <ele>1976</ele>
        <time>2019-04-17T13:39:08Z</time>
      </trkpt>
      <trkpt lat="42.48141" lon="2.19242">
        <ele>1976</ele>
        <time>2019-04-17T13:39:15Z</time>
      </trkpt>
      <trkpt lat="42.48131" lon="2.19243">
        <ele>1977</ele>
        <time>2019-04-17T13:39:23Z</time>
      </trkpt>
      <trkpt lat="42.48121" lon="2.19245">
        <ele>1979</ele>
        <time>2019-04-17T13:39:41Z</time>
      </trkpt>
      <trkpt lat="42.48112" lon="2.19249">
        <ele>1979</ele>
        <time>2019-04-17T13:39:49Z</time>
      </trkpt>
      <trkpt lat="42.48103" lon="2.19253">
        <ele>1979</ele>
        <time>2019-04-17T13:39:54Z</time>
      </trkpt>
      <trkpt lat="42.48094" lon="2.19256">
        <ele>1980</ele>
        <time>2019-04-17T13:40:08Z</time>
      </trkpt>
      <trkpt lat="42.48086" lon="2.19261">
        <ele>1979</ele>
        <time>2019-04-17T13:40:21Z</time>
      </trkpt>
      <trkpt lat="42.48079" lon="2.1927">
        <ele>1982</ele>
        <time>2019-04-17T13:40:36Z</time>
      </trkpt>
      <trkpt lat="42.4807" lon="2.19274">
        <ele>1981</ele>
        <time>2019-04-17T13:40:48Z</time>
      </trkpt>
      <trkpt lat="42.48061" lon="2.19277">
        <ele>1982</ele>
        <time>2019-04-17T13:41:00Z</time>
      </trkpt>
      <trkpt lat="42.48052" lon="2.19281">
        <ele>1982</ele>
        <time>2019-04-17T13:41:17Z</time>
      </trkpt>
      <trkpt lat="42.48045" lon="2.19291">
        <ele>1984</ele>
        <time>2019-04-17T13:41:28Z</time>
      </trkpt>
      <trkpt lat="42.48037" lon="2.19298">
        <ele>1985</ele>
        <time>2019-04-17T13:41:37Z</time>
      </trkpt>
      <trkpt lat="42.48031" lon="2.19308">
        <ele>1984</ele>
        <time>2019-04-17T13:41:45Z</time>
      </trkpt>
      <trkpt lat="42.48025" lon="2.19318">
        <ele>1984</ele>
        <time>2019-04-17T13:41:57Z</time>
      </trkpt>
      <trkpt lat="42.48023" lon="2.1933">
        <ele>1985</ele>
        <time>2019-04-17T13:42:10Z</time>
      </trkpt>
      <trkpt lat="42.48018" lon="2.1934">
        <ele>1985</ele>
        <time>2019-04-17T13:42:21Z</time>
      </trkpt>
      <trkpt lat="42.48011" lon="2.19348">
        <ele>1985</ele>
        <time>2019-04-17T13:42:32Z</time>
      </trkpt>
      <trkpt lat="42.48004" lon="2.19358">
        <ele>1986</ele>
        <time>2019-04-17T13:42:43Z</time>
      </trkpt>
      <trkpt lat="42.48001" lon="2.1937">
        <ele>1986</ele>
        <time>2019-04-17T13:42:52Z</time>
      </trkpt>
      <trkpt lat="42.47993" lon="2.19377">
        <ele>1987</ele>
        <time>2019-04-17T13:43:03Z</time>
      </trkpt>
      <trkpt lat="42.47988" lon="2.19387">
        <ele>1988</ele>
        <time>2019-04-17T13:43:12Z</time>
      </trkpt>
      <trkpt lat="42.47983" lon="2.19397">
        <ele>1989</ele>
        <time>2019-04-17T13:43:20Z</time>
      </trkpt>
      <trkpt lat="42.47978" lon="2.19409">
        <ele>1990</ele>
        <time>2019-04-17T13:43:32Z</time>
      </trkpt>
      <trkpt lat="42.47972" lon="2.19419">
        <ele>1991</ele>
        <time>2019-04-17T13:44:02Z</time>
      </trkpt>
      <trkpt lat="42.47963" lon="2.19427">
        <ele>1991</ele>
        <time>2019-04-17T13:44:12Z</time>
      </trkpt>
      <trkpt lat="42.47955" lon="2.19435">
        <ele>1992</ele>
        <time>2019-04-17T13:44:54Z</time>
      </trkpt>
      <trkpt lat="42.47945" lon="2.19435">
        <ele>1991</ele>
        <time>2019-04-17T13:46:28Z</time>
      </trkpt>
      <trkpt lat="42.47935" lon="2.1943">
        <ele>1989</ele>
        <time>2019-04-17T13:46:34Z</time>
      </trkpt>
      <trkpt lat="42.47927" lon="2.19421">
        <ele>1988</ele>
        <time>2019-04-17T13:46:42Z</time>
      </trkpt>
      <trkpt lat="42.47918" lon="2.19414">
        <ele>1991</ele>
        <time>2019-04-17T13:46:54Z</time>
      </trkpt>
      <trkpt lat="42.47908" lon="2.1941">
        <ele>1992</ele>
        <time>2019-04-17T13:47:04Z</time>
      </trkpt>
      <trkpt lat="42.479" lon="2.19401">
        <ele>1992</ele>
        <time>2019-04-17T13:47:14Z</time>
      </trkpt>
      <trkpt lat="42.47892" lon="2.19393">
        <ele>1992</ele>
        <time>2019-04-17T13:47:22Z</time>
      </trkpt>
      <trkpt lat="42.47883" lon="2.19389">
        <ele>1992</ele>
        <time>2019-04-17T13:47:30Z</time>
      </trkpt>
      <trkpt lat="42.47879" lon="2.19375">
        <ele>1990</ele>
        <time>2019-04-17T13:47:54Z</time>
      </trkpt>
      <trkpt lat="42.47869" lon="2.19368">
        <ele>1990</ele>
        <time>2019-04-17T13:48:12Z</time>
      </trkpt>
      <trkpt lat="42.47869" lon="2.19358">
        <ele>1987</ele>
        <time>2019-04-17T13:48:47Z</time>
      </trkpt>
      <trkpt lat="42.47869" lon="2.19346">
        <ele>1986</ele>
        <time>2019-04-17T13:49:03Z</time>
      </trkpt>
      <trkpt lat="42.47863" lon="2.19335">
        <ele>1985</ele>
        <time>2019-04-17T13:49:16Z</time>
      </trkpt>
      <trkpt lat="42.47857" lon="2.19325">
        <ele>1984</ele>
        <time>2019-04-17T13:49:28Z</time>
      </trkpt>
      <trkpt lat="42.47848" lon="2.19323">
        <ele>1984</ele>
        <time>2019-04-17T13:49:39Z</time>
      </trkpt>
      <trkpt lat="42.47839" lon="2.19317">
        <ele>1983</ele>
        <time>2019-04-17T13:49:51Z</time>
      </trkpt>
      <trkpt lat="42.47831" lon="2.19313">
        <ele>1983</ele>
        <time>2019-04-17T13:50:03Z</time>
      </trkpt>
      <trkpt lat="42.47822" lon="2.19307">
        <ele>1980</ele>
        <time>2019-04-17T13:50:13Z</time>
      </trkpt>
      <trkpt lat="42.47815" lon="2.193">
        <ele>1980</ele>
        <time>2019-04-17T13:50:24Z</time>
      </trkpt>
      <trkpt lat="42.47806" lon="2.19293">
        <ele>1975</ele>
        <time>2019-04-17T13:50:48Z</time>
      </trkpt>
      <trkpt lat="42.47806" lon="2.1928">
        <ele>1972</ele>
        <time>2019-04-17T13:50:58Z</time>
      </trkpt>
      <trkpt lat="42.47796" lon="2.1928">
        <ele>1971</ele>
        <time>2019-04-17T13:51:14Z</time>
      </trkpt>
      <trkpt lat="42.47794" lon="2.19268">
        <ele>1967</ele>
        <time>2019-04-17T13:51:34Z</time>
      </trkpt>
      <trkpt lat="42.47789" lon="2.19258">
        <ele>1966</ele>
        <time>2019-04-17T13:51:52Z</time>
      </trkpt>
      <trkpt lat="42.47781" lon="2.19251">
        <ele>1966</ele>
        <time>2019-04-17T13:52:04Z</time>
      </trkpt>
      <trkpt lat="42.47773" lon="2.19247">
        <ele>1966</ele>
        <time>2019-04-17T13:52:14Z</time>
      </trkpt>
      <trkpt lat="42.47765" lon="2.1924">
        <ele>1964</ele>
        <time>2019-04-17T13:52:28Z</time>
      </trkpt>
      <trkpt lat="42.47759" lon="2.19231">
        <ele>1962</ele>
        <time>2019-04-17T13:52:52Z</time>
      </trkpt>
      <trkpt lat="42.47752" lon="2.19222">
        <ele>1960</ele>
        <time>2019-04-17T13:53:04Z</time>
      </trkpt>
      <trkpt lat="42.47743" lon="2.19218">
        <ele>1960</ele>
        <time>2019-04-17T13:53:12Z</time>
      </trkpt>
      <trkpt lat="42.47735" lon="2.19213">
        <ele>1958</ele>
        <time>2019-04-17T13:53:22Z</time>
      </trkpt>
      <trkpt lat="42.47727" lon="2.19205">
        <ele>1957</ele>
        <time>2019-04-17T13:53:35Z</time>
      </trkpt>
      <trkpt lat="42.47721" lon="2.19195">
        <ele>1951</ele>
        <time>2019-04-17T13:54:19Z</time>
      </trkpt>
      <trkpt lat="42.47714" lon="2.19188">
        <ele>1951</ele>
        <time>2019-04-17T13:54:40Z</time>
      </trkpt>
      <trkpt lat="42.47714" lon="2.19174">
        <ele>1949</ele>
        <time>2019-04-17T13:55:00Z</time>
      </trkpt>
      <trkpt lat="42.47708" lon="2.19164">
        <ele>1947</ele>
        <time>2019-04-17T13:55:09Z</time>
      </trkpt>
      <trkpt lat="42.47699" lon="2.19161">
        <ele>1945</ele>
        <time>2019-04-17T13:55:26Z</time>
      </trkpt>
      <trkpt lat="42.47693" lon="2.19152">
        <ele>1941</ele>
        <time>2019-04-17T13:55:49Z</time>
      </trkpt>
      <trkpt lat="42.47688" lon="2.19141">
        <ele>1942</ele>
        <time>2019-04-17T13:56:14Z</time>
      </trkpt>
      <trkpt lat="42.47689" lon="2.19129">
        <ele>1941</ele>
        <time>2019-04-17T13:56:30Z</time>
      </trkpt>
      <trkpt lat="42.47681" lon="2.19124">
        <ele>1940</ele>
        <time>2019-04-17T13:56:53Z</time>
      </trkpt>
      <trkpt lat="42.47683" lon="2.1911">
        <ele>1936</ele>
        <time>2019-04-17T13:57:07Z</time>
      </trkpt>
      <trkpt lat="42.47674" lon="2.19105">
        <ele>1934</ele>
        <time>2019-04-17T13:57:30Z</time>
      </trkpt>
      <trkpt lat="42.47673" lon="2.19093">
        <ele>1933</ele>
        <time>2019-04-17T13:57:53Z</time>
      </trkpt>
      <trkpt lat="42.47673" lon="2.1908">
        <ele>1931</ele>
        <time>2019-04-17T13:58:09Z</time>
      </trkpt>
      <trkpt lat="42.47664" lon="2.19082">
        <ele>1931</ele>
        <time>2019-04-17T13:58:21Z</time>
      </trkpt>
      <trkpt lat="42.47661" lon="2.19069">
        <ele>1930</ele>
        <time>2019-04-17T13:58:37Z</time>
      </trkpt>
      <trkpt lat="42.47663" lon="2.19057">
        <ele>1930</ele>
        <time>2019-04-17T13:58:52Z</time>
      </trkpt>
      <trkpt lat="42.47658" lon="2.19047">
        <ele>1926</ele>
        <time>2019-04-17T13:59:12Z</time>
      </trkpt>
      <trkpt lat="42.4765" lon="2.19041">
        <ele>1925</ele>
        <time>2019-04-17T13:59:26Z</time>
      </trkpt>
      <trkpt lat="42.47645" lon="2.19031">
        <ele>1925</ele>
        <time>2019-04-17T14:00:00Z</time>
      </trkpt>
      <trkpt lat="42.47648" lon="2.19019">
        <ele>1927</ele>
        <time>2019-04-17T14:00:24Z</time>
      </trkpt>
      <trkpt lat="42.47642" lon="2.19011">
        <ele>1926</ele>
        <time>2019-04-17T14:00:48Z</time>
      </trkpt>
      <trkpt lat="42.47635" lon="2.19001">
        <ele>1925</ele>
        <time>2019-04-17T14:01:09Z</time>
      </trkpt>
      <trkpt lat="42.47629" lon="2.18991">
        <ele>1924</ele>
        <time>2019-04-17T14:01:27Z</time>
      </trkpt>
      <trkpt lat="42.47625" lon="2.18967">
        <ele>1920</ele>
        <time>2019-04-17T14:01:53Z</time>
      </trkpt>
      <trkpt lat="42.47624" lon="2.18955">
        <ele>1918</ele>
        <time>2019-04-17T14:02:10Z</time>
      </trkpt>
      <trkpt lat="42.47624" lon="2.18941">
        <ele>1918</ele>
        <time>2019-04-17T14:02:26Z</time>
      </trkpt>
      <trkpt lat="42.47617" lon="2.18934">
        <ele>1917</ele>
        <time>2019-04-17T14:02:32Z</time>
      </trkpt>
      <trkpt lat="42.47614" lon="2.18923">
        <ele>1916</ele>
        <time>2019-04-17T14:02:43Z</time>
      </trkpt>
      <trkpt lat="42.4762" lon="2.18913">
        <ele>1914</ele>
        <time>2019-04-17T14:02:59Z</time>
      </trkpt>
      <trkpt lat="42.47616" lon="2.18901">
        <ele>1912</ele>
        <time>2019-04-17T14:03:11Z</time>
      </trkpt>
      <trkpt lat="42.47619" lon="2.18888">
        <ele>1909</ele>
        <time>2019-04-17T14:03:31Z</time>
      </trkpt>
      <trkpt lat="42.4762" lon="2.18876">
        <ele>1908</ele>
        <time>2019-04-17T14:03:44Z</time>
      </trkpt>
      <trkpt lat="42.47612" lon="2.18867">
        <ele>1906</ele>
        <time>2019-04-17T14:03:53Z</time>
      </trkpt>
      <trkpt lat="42.47618" lon="2.18856">
        <ele>1902</ele>
        <time>2019-04-17T14:04:06Z</time>
      </trkpt>
      <trkpt lat="42.47614" lon="2.18845">
        <ele>1900</ele>
        <time>2019-04-17T14:04:21Z</time>
      </trkpt>
      <trkpt lat="42.47606" lon="2.18837">
        <ele>1899</ele>
        <time>2019-04-17T14:04:33Z</time>
      </trkpt>
      <trkpt lat="42.47596" lon="2.18836">
        <ele>1898</ele>
        <time>2019-04-17T14:04:44Z</time>
      </trkpt>
      <trkpt lat="42.47586" lon="2.18841">
        <ele>1897</ele>
        <time>2019-04-17T14:04:49Z</time>
      </trkpt>
      <trkpt lat="42.47575" lon="2.1884">
        <ele>1896</ele>
        <time>2019-04-17T14:05:48Z</time>
      </trkpt>
      <trkpt lat="42.47566" lon="2.18844">
        <ele>1890</ele>
        <time>2019-04-17T14:06:19Z</time>
      </trkpt>
      <trkpt lat="42.47557" lon="2.18843">
        <ele>1887</ele>
        <time>2019-04-17T14:06:42Z</time>
      </trkpt>
      <trkpt lat="42.47548" lon="2.18841">
        <ele>1884</ele>
        <time>2019-04-17T14:07:02Z</time>
      </trkpt>
      <trkpt lat="42.4754" lon="2.18835">
        <ele>1876</ele>
        <time>2019-04-17T14:07:43Z</time>
      </trkpt>
      <trkpt lat="42.4753" lon="2.18836">
        <ele>1872</ele>
        <time>2019-04-17T14:08:14Z</time>
      </trkpt>
      <trkpt lat="42.47521" lon="2.18834">
        <ele>1868</ele>
        <time>2019-04-17T14:08:42Z</time>
      </trkpt>
      <trkpt lat="42.47517" lon="2.18823">
        <ele>1863</ele>
        <time>2019-04-17T14:09:05Z</time>
      </trkpt>
      <trkpt lat="42.4751" lon="2.18815">
        <ele>1858</ele>
        <time>2019-04-17T14:09:29Z</time>
      </trkpt>
      <trkpt lat="42.47506" lon="2.18803">
        <ele>1854</ele>
        <time>2019-04-17T14:09:50Z</time>
      </trkpt>
      <trkpt lat="42.47502" lon="2.18791">
        <ele>1850</ele>
        <time>2019-04-17T14:10:12Z</time>
      </trkpt>
      <trkpt lat="42.47493" lon="2.18794">
        <ele>1846</ele>
        <time>2019-04-17T14:10:36Z</time>
      </trkpt>
      <trkpt lat="42.47486" lon="2.18786">
        <ele>1840</ele>
        <time>2019-04-17T14:11:05Z</time>
      </trkpt>
      <trkpt lat="42.47477" lon="2.18783">
        <ele>1838</ele>
        <time>2019-04-17T14:11:19Z</time>
      </trkpt>
      <trkpt lat="42.47475" lon="2.1877">
        <ele>1833</ele>
        <time>2019-04-17T14:11:39Z</time>
      </trkpt>
      <trkpt lat="42.47467" lon="2.18762">
        <ele>1830</ele>
        <time>2019-04-17T14:11:51Z</time>
      </trkpt>
      <trkpt lat="42.47462" lon="2.18752">
        <ele>1825</ele>
        <time>2019-04-17T14:12:21Z</time>
      </trkpt>
      <trkpt lat="42.47463" lon="2.18739">
        <ele>1822</ele>
        <time>2019-04-17T14:12:33Z</time>
      </trkpt>
      <trkpt lat="42.4746" lon="2.18715">
        <ele>1813</ele>
        <time>2019-04-17T14:13:17Z</time>
      </trkpt>
      <trkpt lat="42.47465" lon="2.18704">
        <ele>1811</ele>
        <time>2019-04-17T14:13:33Z</time>
      </trkpt>
      <trkpt lat="42.47467" lon="2.18691">
        <ele>1809</ele>
        <time>2019-04-17T14:13:47Z</time>
      </trkpt>
      <trkpt lat="42.47474" lon="2.18684">
        <ele>1806</ele>
        <time>2019-04-17T14:13:59Z</time>
      </trkpt>
      <trkpt lat="42.47478" lon="2.18672">
        <ele>1803</ele>
        <time>2019-04-17T14:14:18Z</time>
      </trkpt>
      <trkpt lat="42.47484" lon="2.18662">
        <ele>1802</ele>
        <time>2019-04-17T14:14:29Z</time>
      </trkpt>
      <trkpt lat="42.47488" lon="2.18651">
        <ele>1797</ele>
        <time>2019-04-17T14:14:43Z</time>
      </trkpt>
      <trkpt lat="42.47488" lon="2.18638">
        <ele>1795</ele>
        <time>2019-04-17T14:14:56Z</time>
      </trkpt>
      <trkpt lat="42.47489" lon="2.18626">
        <ele>1790</ele>
        <time>2019-04-17T14:15:12Z</time>
      </trkpt>
      <trkpt lat="42.47491" lon="2.18613">
        <ele>1787</ele>
        <time>2019-04-17T14:15:28Z</time>
      </trkpt>
      <trkpt lat="42.47493" lon="2.18601">
        <ele>1784</ele>
        <time>2019-04-17T14:15:43Z</time>
      </trkpt>
      <trkpt lat="42.47492" lon="2.18589">
        <ele>1778</ele>
        <time>2019-04-17T14:16:28Z</time>
      </trkpt>
      <trkpt lat="42.47492" lon="2.18576">
        <ele>1775</ele>
        <time>2019-04-17T14:16:47Z</time>
      </trkpt>
      <trkpt lat="42.47497" lon="2.18566">
        <ele>1772</ele>
        <time>2019-04-17T14:16:59Z</time>
      </trkpt>
      <trkpt lat="42.47495" lon="2.18553">
        <ele>1769</ele>
        <time>2019-04-17T14:17:14Z</time>
      </trkpt>
      <trkpt lat="42.47498" lon="2.18541">
        <ele>1767</ele>
        <time>2019-04-17T14:17:28Z</time>
      </trkpt>
      <trkpt lat="42.47497" lon="2.18528">
        <ele>1762</ele>
        <time>2019-04-17T14:17:45Z</time>
      </trkpt>
      <trkpt lat="42.47499" lon="2.18516">
        <ele>1759</ele>
        <time>2019-04-17T14:18:03Z</time>
      </trkpt>
      <trkpt lat="42.475" lon="2.18503">
        <ele>1756</ele>
        <time>2019-04-17T14:18:18Z</time>
      </trkpt>
      <trkpt lat="42.47507" lon="2.18494">
        <ele>1755</ele>
        <time>2019-04-17T14:18:29Z</time>
      </trkpt>
      <trkpt lat="42.47511" lon="2.18484">
        <ele>1750</ele>
        <time>2019-04-17T14:18:55Z</time>
      </trkpt>
      <trkpt lat="42.47517" lon="2.18474">
        <ele>1748</ele>
        <time>2019-04-17T14:19:10Z</time>
      </trkpt>
      <trkpt lat="42.47524" lon="2.18465">
        <ele>1745</ele>
        <time>2019-04-17T14:19:30Z</time>
      </trkpt>
      <trkpt lat="42.47524" lon="2.18453">
        <ele>1741</ele>
        <time>2019-04-17T14:19:45Z</time>
      </trkpt>
      <trkpt lat="42.4753" lon="2.18443">
        <ele>1737</ele>
        <time>2019-04-17T14:20:00Z</time>
      </trkpt>
      <trkpt lat="42.47533" lon="2.18431">
        <ele>1733</ele>
        <time>2019-04-17T14:20:17Z</time>
      </trkpt>
      <trkpt lat="42.47534" lon="2.18419">
        <ele>1730</ele>
        <time>2019-04-17T14:20:31Z</time>
      </trkpt>
      <trkpt lat="42.47535" lon="2.18406">
        <ele>1727</ele>
        <time>2019-04-17T14:20:44Z</time>
      </trkpt>
      <trkpt lat="42.47532" lon="2.18394">
        <ele>1725</ele>
        <time>2019-04-17T14:20:56Z</time>
      </trkpt>
      <trkpt lat="42.47538" lon="2.18384">
        <ele>1723</ele>
        <time>2019-04-17T14:21:07Z</time>
      </trkpt>
      <trkpt lat="42.47541" lon="2.18372">
        <ele>1720</ele>
        <time>2019-04-17T14:21:19Z</time>
      </trkpt>
      <trkpt lat="42.47543" lon="2.1836">
        <ele>1718</ele>
        <time>2019-04-17T14:21:31Z</time>
      </trkpt>
      <trkpt lat="42.47545" lon="2.18347">
        <ele>1716</ele>
        <time>2019-04-17T14:21:43Z</time>
      </trkpt>
      <trkpt lat="42.47546" lon="2.18335">
        <ele>1714</ele>
        <time>2019-04-17T14:21:55Z</time>
      </trkpt>
      <trkpt lat="42.47546" lon="2.18322">
        <ele>1712</ele>
        <time>2019-04-17T14:22:06Z</time>
      </trkpt>
      <trkpt lat="42.4755" lon="2.18311">
        <ele>1711</ele>
        <time>2019-04-17T14:22:17Z</time>
      </trkpt>
      <trkpt lat="42.47556" lon="2.18302">
        <ele>1709</ele>
        <time>2019-04-17T14:22:30Z</time>
      </trkpt>
      <trkpt lat="42.4756" lon="2.1829">
        <ele>1708</ele>
        <time>2019-04-17T14:22:39Z</time>
      </trkpt>
      <trkpt lat="42.47565" lon="2.18278">
        <ele>1706</ele>
        <time>2019-04-17T14:22:49Z</time>
      </trkpt>
      <trkpt lat="42.47572" lon="2.18271">
        <ele>1704</ele>
        <time>2019-04-17T14:22:58Z</time>
      </trkpt>
      <trkpt lat="42.47579" lon="2.18261">
        <ele>1702</ele>
        <time>2019-04-17T14:23:07Z</time>
      </trkpt>
      <trkpt lat="42.47583" lon="2.1825">
        <ele>1700</ele>
        <time>2019-04-17T14:23:17Z</time>
      </trkpt>
      <trkpt lat="42.47583" lon="2.18237">
        <ele>1700</ele>
        <time>2019-04-17T14:23:26Z</time>
      </trkpt>
      <trkpt lat="42.47582" lon="2.18224">
        <ele>1698</ele>
        <time>2019-04-17T14:23:36Z</time>
      </trkpt>
      <trkpt lat="42.47591" lon="2.18219">
        <ele>1696</ele>
        <time>2019-04-17T14:23:47Z</time>
      </trkpt>
      <trkpt lat="42.47599" lon="2.18212">
        <ele>1695</ele>
        <time>2019-04-17T14:23:57Z</time>
      </trkpt>
      <trkpt lat="42.47606" lon="2.18203">
        <ele>1693</ele>
        <time>2019-04-17T14:24:06Z</time>
      </trkpt>
      <trkpt lat="42.47614" lon="2.182">
        <ele>1693</ele>
        <time>2019-04-17T14:24:15Z</time>
      </trkpt>
      <trkpt lat="42.47624" lon="2.18197">
        <ele>1691</ele>
        <time>2019-04-17T14:24:32Z</time>
      </trkpt>
      <trkpt lat="42.47632" lon="2.18203">
        <ele>1688</ele>
        <time>2019-04-17T14:25:00Z</time>
      </trkpt>
      <trkpt lat="42.47629" lon="2.18214">
        <ele>1687</ele>
        <time>2019-04-17T14:25:20Z</time>
      </trkpt>
      <trkpt lat="42.47626" lon="2.18229">
        <ele>1686</ele>
        <time>2019-04-17T14:25:32Z</time>
      </trkpt>
      <trkpt lat="42.47631" lon="2.18241">
        <ele>1688</ele>
        <time>2019-04-17T14:25:54Z</time>
      </trkpt>
      <trkpt lat="42.47624" lon="2.18232">
        <ele>1689</ele>
        <time>2019-04-17T14:26:28Z</time>
      </trkpt>
      <trkpt lat="42.47622" lon="2.18219">
        <ele>1688</ele>
        <time>2019-04-17T14:26:34Z</time>
      </trkpt>
      <trkpt lat="42.47619" lon="2.18207">
        <ele>1689</ele>
        <time>2019-04-17T14:26:42Z</time>
      </trkpt>
      <trkpt lat="42.4762" lon="2.18194">
        <ele>1688</ele>
        <time>2019-04-17T14:26:50Z</time>
      </trkpt>
      <trkpt lat="42.4763" lon="2.18188">
        <ele>1689</ele>
        <time>2019-04-17T14:27:16Z</time>
      </trkpt>
      <trkpt lat="42.47639" lon="2.18184">
        <ele>1688</ele>
        <time>2019-04-17T14:27:24Z</time>
      </trkpt>
      <trkpt lat="42.47648" lon="2.18181">
        <ele>1687</ele>
        <time>2019-04-17T14:27:32Z</time>
      </trkpt>
      <trkpt lat="42.47658" lon="2.18177">
        <ele>1686</ele>
        <time>2019-04-17T14:27:42Z</time>
      </trkpt>
      <trkpt lat="42.47665" lon="2.18169">
        <ele>1685</ele>
        <time>2019-04-17T14:27:50Z</time>
      </trkpt>
      <trkpt lat="42.47675" lon="2.18168">
        <ele>1685</ele>
        <time>2019-04-17T14:27:58Z</time>
      </trkpt>
      <trkpt lat="42.47683" lon="2.1816">
        <ele>1684</ele>
        <time>2019-04-17T14:28:08Z</time>
      </trkpt>
      <trkpt lat="42.47694" lon="2.18158">
        <ele>1684</ele>
        <time>2019-04-17T14:28:18Z</time>
      </trkpt>
      <trkpt lat="42.47705" lon="2.18152">
        <ele>1682</ele>
        <time>2019-04-17T14:28:32Z</time>
      </trkpt>
      <trkpt lat="42.47713" lon="2.18146">
        <ele>1682</ele>
        <time>2019-04-17T14:28:42Z</time>
      </trkpt>
      <trkpt lat="42.47722" lon="2.18143">
        <ele>1681</ele>
        <time>2019-04-17T14:28:54Z</time>
      </trkpt>
      <trkpt lat="42.47731" lon="2.1814">
        <ele>1681</ele>
        <time>2019-04-17T14:29:02Z</time>
      </trkpt>
      <trkpt lat="42.47737" lon="2.1813">
        <ele>1677</ele>
        <time>2019-04-17T14:29:16Z</time>
      </trkpt>
      <trkpt lat="42.47745" lon="2.18123">
        <ele>1676</ele>
        <time>2019-04-17T14:29:34Z</time>
      </trkpt>
      <trkpt lat="42.47752" lon="2.18116">
        <ele>1673</ele>
        <time>2019-04-17T14:29:47Z</time>
      </trkpt>
      <trkpt lat="42.47759" lon="2.18107">
        <ele>1672</ele>
        <time>2019-04-17T14:29:54Z</time>
      </trkpt>
      <trkpt lat="42.47769" lon="2.18106">
        <ele>1670</ele>
        <time>2019-04-17T14:30:07Z</time>
      </trkpt>
      <trkpt lat="42.47779" lon="2.18104">
        <ele>1668</ele>
        <time>2019-04-17T14:30:19Z</time>
      </trkpt>
      <trkpt lat="42.47787" lon="2.18096">
        <ele>1667</ele>
        <time>2019-04-17T14:30:30Z</time>
      </trkpt>
      <trkpt lat="42.47795" lon="2.18091">
        <ele>1664</ele>
        <time>2019-04-17T14:30:38Z</time>
      </trkpt>
      <trkpt lat="42.47805" lon="2.18086">
        <ele>1659</ele>
        <time>2019-04-17T14:30:55Z</time>
      </trkpt>
      <trkpt lat="42.47809" lon="2.18075">
        <ele>1658</ele>
        <time>2019-04-17T14:31:04Z</time>
      </trkpt>
      <trkpt lat="42.47809" lon="2.18062">
        <ele>1656</ele>
        <time>2019-04-17T14:31:15Z</time>
      </trkpt>
      <trkpt lat="42.47816" lon="2.1805">
        <ele>1655</ele>
        <time>2019-04-17T14:31:27Z</time>
      </trkpt>
      <trkpt lat="42.47799" lon="2.18044">
        <ele>1655</ele>
        <time>2019-04-17T14:31:43Z</time>
      </trkpt>
      <trkpt lat="42.4779" lon="2.1804">
        <ele>1655</ele>
        <time>2019-04-17T14:31:53Z</time>
      </trkpt>
      <trkpt lat="42.47782" lon="2.18032">
        <ele>1654</ele>
        <time>2019-04-17T14:32:03Z</time>
      </trkpt>
      <trkpt lat="42.47772" lon="2.18028">
        <ele>1653</ele>
        <time>2019-04-17T14:32:11Z</time>
      </trkpt>
      <trkpt lat="42.47762" lon="2.18027">
        <ele>1653</ele>
        <time>2019-04-17T14:32:18Z</time>
      </trkpt>
      <trkpt lat="42.47752" lon="2.18029">
        <ele>1653</ele>
        <time>2019-04-17T14:32:24Z</time>
      </trkpt>
      <trkpt lat="42.47743" lon="2.18033">
        <ele>1654</ele>
        <time>2019-04-17T14:32:30Z</time>
      </trkpt>
      <trkpt lat="42.47734" lon="2.18041">
        <ele>1654</ele>
        <time>2019-04-17T14:32:36Z</time>
      </trkpt>
      <trkpt lat="42.47724" lon="2.18042">
        <ele>1653</ele>
        <time>2019-04-17T14:32:44Z</time>
      </trkpt>
      <trkpt lat="42.47716" lon="2.18034">
        <ele>1652</ele>
        <time>2019-04-17T14:32:49Z</time>
      </trkpt>
      <trkpt lat="42.47707" lon="2.18038">
        <ele>1653</ele>
        <time>2019-04-17T14:32:54Z</time>
      </trkpt>
      <trkpt lat="42.47698" lon="2.1804">
        <ele>1653</ele>
        <time>2019-04-17T14:33:02Z</time>
      </trkpt>
      <trkpt lat="42.47688" lon="2.18038">
        <ele>1652</ele>
        <time>2019-04-17T14:33:10Z</time>
      </trkpt>
      <trkpt lat="42.47679" lon="2.18039">
        <ele>1653</ele>
        <time>2019-04-17T14:33:17Z</time>
      </trkpt>
      <trkpt lat="42.4767" lon="2.18045">
        <ele>1653</ele>
        <time>2019-04-17T14:33:26Z</time>
      </trkpt>
      <trkpt lat="42.47662" lon="2.18053">
        <ele>1653</ele>
        <time>2019-04-17T14:33:32Z</time>
      </trkpt>
      <trkpt lat="42.47654" lon="2.18049">
        <ele>1653</ele>
        <time>2019-04-17T14:33:40Z</time>
      </trkpt>
      <trkpt lat="42.47645" lon="2.1804">
        <ele>1652</ele>
        <time>2019-04-17T14:33:47Z</time>
      </trkpt>
      <trkpt lat="42.47639" lon="2.18031">
        <ele>1652</ele>
        <time>2019-04-17T14:33:52Z</time>
      </trkpt>
      <trkpt lat="42.4763" lon="2.18037">
        <ele>1653</ele>
        <time>2019-04-17T14:33:59Z</time>
      </trkpt>
      <trkpt lat="42.4762" lon="2.18038">
        <ele>1651</ele>
        <time>2019-04-17T14:34:08Z</time>
      </trkpt>
      <trkpt lat="42.47613" lon="2.18031">
        <ele>1650</ele>
        <time>2019-04-17T14:34:19Z</time>
      </trkpt>
      <trkpt lat="42.47604" lon="2.18024">
        <ele>1648</ele>
        <time>2019-04-17T14:34:25Z</time>
      </trkpt>
      <trkpt lat="42.47596" lon="2.18018">
        <ele>1648</ele>
        <time>2019-04-17T14:34:32Z</time>
      </trkpt>
      <trkpt lat="42.47587" lon="2.1802">
        <ele>1647</ele>
        <time>2019-04-17T14:34:40Z</time>
      </trkpt>
      <trkpt lat="42.47578" lon="2.18016">
        <ele>1647</ele>
        <time>2019-04-17T14:34:46Z</time>
      </trkpt>
      <trkpt lat="42.47568" lon="2.18011">
        <ele>1646</ele>
        <time>2019-04-17T14:34:55Z</time>
      </trkpt>
      <trkpt lat="42.47558" lon="2.1801">
        <ele>1644</ele>
        <time>2019-04-17T14:35:02Z</time>
      </trkpt>
      <trkpt lat="42.47548" lon="2.1801">
        <ele>1644</ele>
        <time>2019-04-17T14:35:09Z</time>
      </trkpt>
      <trkpt lat="42.47539" lon="2.18005">
        <ele>1643</ele>
        <time>2019-04-17T14:35:16Z</time>
      </trkpt>
      <trkpt lat="42.4753" lon="2.18001">
        <ele>1641</ele>
        <time>2019-04-17T14:35:24Z</time>
      </trkpt>
      <trkpt lat="42.47521" lon="2.17999">
        <ele>1641</ele>
        <time>2019-04-17T14:35:32Z</time>
      </trkpt>
      <trkpt lat="42.47511" lon="2.17996">
        <ele>1640</ele>
        <time>2019-04-17T14:35:41Z</time>
      </trkpt>
      <trkpt lat="42.47502" lon="2.17993">
        <ele>1639</ele>
        <time>2019-04-17T14:35:50Z</time>
      </trkpt>
      <trkpt lat="42.47492" lon="2.17991">
        <ele>1639</ele>
        <time>2019-04-17T14:35:57Z</time>
      </trkpt>
      <trkpt lat="42.47483" lon="2.17986">
        <ele>1638</ele>
        <time>2019-04-17T14:36:04Z</time>
      </trkpt>
      <trkpt lat="42.47474" lon="2.17981">
        <ele>1637</ele>
        <time>2019-04-17T14:36:11Z</time>
      </trkpt>
      <trkpt lat="42.47465" lon="2.17976">
        <ele>1637</ele>
        <time>2019-04-17T14:36:19Z</time>
      </trkpt>
      <trkpt lat="42.47454" lon="2.17977">
        <ele>1636</ele>
        <time>2019-04-17T14:36:28Z</time>
      </trkpt>
      <trkpt lat="42.47447" lon="2.17964">
        <ele>1632</ele>
        <time>2019-04-17T14:36:40Z</time>
      </trkpt>
      <trkpt lat="42.47437" lon="2.17954">
        <ele>1632</ele>
        <time>2019-04-17T14:36:48Z</time>
      </trkpt>
      <trkpt lat="42.47429" lon="2.17946">
        <ele>1631</ele>
        <time>2019-04-17T14:36:54Z</time>
      </trkpt>
      <trkpt lat="42.47422" lon="2.17937">
        <ele>1629</ele>
        <time>2019-04-17T14:37:02Z</time>
      </trkpt>
      <trkpt lat="42.47415" lon="2.17929">
        <ele>1627</ele>
        <time>2019-04-17T14:37:11Z</time>
      </trkpt>
      <trkpt lat="42.47405" lon="2.17925">
        <ele>1626</ele>
        <time>2019-04-17T14:37:19Z</time>
      </trkpt>
      <trkpt lat="42.47398" lon="2.17917">
        <ele>1624</ele>
        <time>2019-04-17T14:37:28Z</time>
      </trkpt>
      <trkpt lat="42.4739" lon="2.17909">
        <ele>1623</ele>
        <time>2019-04-17T14:37:38Z</time>
      </trkpt>
      <trkpt lat="42.47388" lon="2.17896">
        <ele>1620</ele>
        <time>2019-04-17T14:37:46Z</time>
      </trkpt>
      <trkpt lat="42.47388" lon="2.17883">
        <ele>1620</ele>
        <time>2019-04-17T14:37:53Z</time>
      </trkpt>
      <trkpt lat="42.4739" lon="2.17871">
        <ele>1620</ele>
        <time>2019-04-17T14:37:58Z</time>
      </trkpt>
      <trkpt lat="42.47393" lon="2.17858">
        <ele>1620</ele>
        <time>2019-04-17T14:38:04Z</time>
      </trkpt>
      <trkpt lat="42.47398" lon="2.17847">
        <ele>1620</ele>
        <time>2019-04-17T14:38:12Z</time>
      </trkpt>
      <trkpt lat="42.47406" lon="2.17839">
        <ele>1619</ele>
        <time>2019-04-17T14:38:24Z</time>
      </trkpt>
      <trkpt lat="42.47414" lon="2.17831">
        <ele>1619</ele>
        <time>2019-04-17T14:38:33Z</time>
      </trkpt>
      <trkpt lat="42.47422" lon="2.17825">
        <ele>1618</ele>
        <time>2019-04-17T14:38:41Z</time>
      </trkpt>
      <trkpt lat="42.4743" lon="2.17817">
        <ele>1619</ele>
        <time>2019-04-17T14:38:51Z</time>
      </trkpt>
      <trkpt lat="42.47438" lon="2.1781">
        <ele>1619</ele>
        <time>2019-04-17T14:38:57Z</time>
      </trkpt>
      <trkpt lat="42.47446" lon="2.17804">
        <ele>1619</ele>
        <time>2019-04-17T14:39:04Z</time>
      </trkpt>
      <trkpt lat="42.47455" lon="2.17802">
        <ele>1620</ele>
        <time>2019-04-17T14:39:14Z</time>
      </trkpt>
      <trkpt lat="42.47465" lon="2.17799">
        <ele>1619</ele>
        <time>2019-04-17T14:39:21Z</time>
      </trkpt>
      <trkpt lat="42.47474" lon="2.17798">
        <ele>1619</ele>
        <time>2019-04-17T14:39:30Z</time>
      </trkpt>
      <trkpt lat="42.47484" lon="2.17795">
        <ele>1618</ele>
        <time>2019-04-17T14:39:38Z</time>
      </trkpt>
      <trkpt lat="42.47494" lon="2.17796">
        <ele>1618</ele>
        <time>2019-04-17T14:39:47Z</time>
      </trkpt>
      <trkpt lat="42.47503" lon="2.17795">
        <ele>1617</ele>
        <time>2019-04-17T14:39:56Z</time>
      </trkpt>
      <trkpt lat="42.47513" lon="2.17791">
        <ele>1614</ele>
        <time>2019-04-17T14:40:04Z</time>
      </trkpt>
      <trkpt lat="42.47523" lon="2.17786">
        <ele>1613</ele>
        <time>2019-04-17T14:40:11Z</time>
      </trkpt>
      <trkpt lat="42.47531" lon="2.17782">
        <ele>1615</ele>
        <time>2019-04-17T14:40:22Z</time>
      </trkpt>
      <trkpt lat="42.4754" lon="2.17778">
        <ele>1615</ele>
        <time>2019-04-17T14:40:30Z</time>
      </trkpt>
      <trkpt lat="42.47549" lon="2.17773">
        <ele>1615</ele>
        <time>2019-04-17T14:40:36Z</time>
      </trkpt>
      <trkpt lat="42.47558" lon="2.17769">
        <ele>1616</ele>
        <time>2019-04-17T14:40:43Z</time>
      </trkpt>
      <trkpt lat="42.47567" lon="2.17765">
        <ele>1617</ele>
        <time>2019-04-17T14:40:51Z</time>
      </trkpt>
      <trkpt lat="42.47577" lon="2.17761">
        <ele>1616</ele>
        <time>2019-04-17T14:40:59Z</time>
      </trkpt>
      <trkpt lat="42.47586" lon="2.17756">
        <ele>1616</ele>
        <time>2019-04-17T14:41:10Z</time>
      </trkpt>
      <trkpt lat="42.47596" lon="2.17752">
        <ele>1616</ele>
        <time>2019-04-17T14:41:16Z</time>
      </trkpt>
      <trkpt lat="42.47603" lon="2.17745">
        <ele>1615</ele>
        <time>2019-04-17T14:41:24Z</time>
      </trkpt>
      <trkpt lat="42.47611" lon="2.17739">
        <ele>1615</ele>
        <time>2019-04-17T14:41:31Z</time>
      </trkpt>
      <trkpt lat="42.47619" lon="2.17734">
        <ele>1614</ele>
        <time>2019-04-17T14:41:38Z</time>
      </trkpt>
      <trkpt lat="42.47625" lon="2.17724">
        <ele>1615</ele>
        <time>2019-04-17T14:41:43Z</time>
      </trkpt>
      <trkpt lat="42.4763" lon="2.17713">
        <ele>1615</ele>
        <time>2019-04-17T14:41:50Z</time>
      </trkpt>
      <trkpt lat="42.47637" lon="2.17705">
        <ele>1616</ele>
        <time>2019-04-17T14:41:56Z</time>
      </trkpt>
      <trkpt lat="42.47644" lon="2.17696">
        <ele>1616</ele>
        <time>2019-04-17T14:42:03Z</time>
      </trkpt>
      <trkpt lat="42.47649" lon="2.17685">
        <ele>1616</ele>
        <time>2019-04-17T14:42:09Z</time>
      </trkpt>
      <trkpt lat="42.47659" lon="2.17681">
        <ele>1615</ele>
        <time>2019-04-17T14:42:27Z</time>
      </trkpt>
      <trkpt lat="42.47668" lon="2.17675">
        <ele>1614</ele>
        <time>2019-04-17T14:42:36Z</time>
      </trkpt>
      <trkpt lat="42.47677" lon="2.17671">
        <ele>1614</ele>
        <time>2019-04-17T14:42:44Z</time>
      </trkpt>
      <trkpt lat="42.47685" lon="2.17664">
        <ele>1613</ele>
        <time>2019-04-17T14:42:55Z</time>
      </trkpt>
      <trkpt lat="42.47692" lon="2.17656">
        <ele>1612</ele>
        <time>2019-04-17T14:43:00Z</time>
      </trkpt>
      <trkpt lat="42.477" lon="2.1765">
        <ele>1610</ele>
        <time>2019-04-17T14:43:05Z</time>
      </trkpt>
      <trkpt lat="42.4771" lon="2.17648">
        <ele>1609</ele>
        <time>2019-04-17T14:43:11Z</time>
      </trkpt>
      <trkpt lat="42.47719" lon="2.17645">
        <ele>1609</ele>
        <time>2019-04-17T14:43:17Z</time>
      </trkpt>
      <trkpt lat="42.47726" lon="2.17638">
        <ele>1610</ele>
        <time>2019-04-17T14:43:24Z</time>
      </trkpt>
      <trkpt lat="42.47734" lon="2.17629">
        <ele>1609</ele>
        <time>2019-04-17T14:43:29Z</time>
      </trkpt>
      <trkpt lat="42.47742" lon="2.17622">
        <ele>1609</ele>
        <time>2019-04-17T14:43:39Z</time>
      </trkpt>
      <trkpt lat="42.47751" lon="2.1762">
        <ele>1610</ele>
        <time>2019-04-17T14:43:47Z</time>
      </trkpt>
      <trkpt lat="42.47756" lon="2.17609">
        <ele>1609</ele>
        <time>2019-04-17T14:43:58Z</time>
      </trkpt>
      <trkpt lat="42.47765" lon="2.17604">
        <ele>1607</ele>
        <time>2019-04-17T14:44:09Z</time>
      </trkpt>
      <trkpt lat="42.47781" lon="2.17592">
        <ele>1608</ele>
        <time>2019-04-17T14:44:22Z</time>
      </trkpt>
      <trkpt lat="42.47789" lon="2.17585">
        <ele>1608</ele>
        <time>2019-04-17T14:44:28Z</time>
      </trkpt>
      <trkpt lat="42.47797" lon="2.17581">
        <ele>1606</ele>
        <time>2019-04-17T14:44:36Z</time>
      </trkpt>
      <trkpt lat="42.47805" lon="2.17573">
        <ele>1605</ele>
        <time>2019-04-17T14:44:46Z</time>
      </trkpt>
      <trkpt lat="42.47813" lon="2.17565">
        <ele>1602</ele>
        <time>2019-04-17T14:44:58Z</time>
      </trkpt>
      <trkpt lat="42.47821" lon="2.17558">
        <ele>1602</ele>
        <time>2019-04-17T14:45:04Z</time>
      </trkpt>
      <trkpt lat="42.47839" lon="2.17549">
        <ele>1600</ele>
        <time>2019-04-17T14:45:16Z</time>
      </trkpt>
      <trkpt lat="42.47847" lon="2.17542">
        <ele>1599</ele>
        <time>2019-04-17T14:45:21Z</time>
      </trkpt>
      <trkpt lat="42.47855" lon="2.17536">
        <ele>1599</ele>
        <time>2019-04-17T14:45:27Z</time>
      </trkpt>
      <trkpt lat="42.47863" lon="2.1753">
        <ele>1593</ele>
        <time>2019-04-17T14:45:35Z</time>
      </trkpt>
      <trkpt lat="42.47872" lon="2.17523">
        <ele>1595</ele>
        <time>2019-04-17T14:45:40Z</time>
      </trkpt>
      <trkpt lat="42.47879" lon="2.17513">
        <ele>1593</ele>
        <time>2019-04-17T14:45:45Z</time>
      </trkpt>
      <trkpt lat="42.47881" lon="2.17494">
        <ele>1594</ele>
        <time>2019-04-17T14:45:54Z</time>
      </trkpt>
      <trkpt lat="42.47886" lon="2.17483">
        <ele>1595</ele>
        <time>2019-04-17T14:46:00Z</time>
      </trkpt>
      <trkpt lat="42.47894" lon="2.17477">
        <ele>1595</ele>
        <time>2019-04-17T14:46:07Z</time>
      </trkpt>
      <trkpt lat="42.47899" lon="2.17467">
        <ele>1594</ele>
        <time>2019-04-17T14:46:13Z</time>
      </trkpt>
      <trkpt lat="42.47905" lon="2.17456">
        <ele>1591</ele>
        <time>2019-04-17T14:46:22Z</time>
      </trkpt>
      <trkpt lat="42.47911" lon="2.17447">
        <ele>1591</ele>
        <time>2019-04-17T14:46:29Z</time>
      </trkpt>
      <trkpt lat="42.47918" lon="2.17438">
        <ele>1590</ele>
        <time>2019-04-17T14:46:40Z</time>
      </trkpt>
      <trkpt lat="42.47925" lon="2.17429">
        <ele>1589</ele>
        <time>2019-04-17T14:46:47Z</time>
      </trkpt>
      <trkpt lat="42.47931" lon="2.17418">
        <ele>1587</ele>
        <time>2019-04-17T14:46:55Z</time>
      </trkpt>
      <trkpt lat="42.47936" lon="2.17406">
        <ele>1586</ele>
        <time>2019-04-17T14:47:08Z</time>
      </trkpt>
      <trkpt lat="42.47932" lon="2.17395">
        <ele>1584</ele>
        <time>2019-04-17T14:47:15Z</time>
      </trkpt>
      <trkpt lat="42.47935" lon="2.17383">
        <ele>1586</ele>
        <time>2019-04-17T14:47:33Z</time>
      </trkpt>
      <trkpt lat="42.47943" lon="2.17374">
        <ele>1587</ele>
        <time>2019-04-17T14:47:41Z</time>
      </trkpt>
      <trkpt lat="42.47951" lon="2.17368">
        <ele>1584</ele>
        <time>2019-04-17T14:47:49Z</time>
      </trkpt>
      <trkpt lat="42.47969" lon="2.17355">
        <ele>1581</ele>
        <time>2019-04-17T14:47:59Z</time>
      </trkpt>
      <trkpt lat="42.47978" lon="2.17351">
        <ele>1579</ele>
        <time>2019-04-17T14:48:06Z</time>
      </trkpt>
      <trkpt lat="42.47981" lon="2.17339">
        <ele>1577</ele>
        <time>2019-04-17T14:48:20Z</time>
      </trkpt>
      <trkpt lat="42.47987" lon="2.17329">
        <ele>1577</ele>
        <time>2019-04-17T14:48:28Z</time>
      </trkpt>
      <trkpt lat="42.47994" lon="2.17321">
        <ele>1576</ele>
        <time>2019-04-17T14:48:36Z</time>
      </trkpt>
      <trkpt lat="42.48003" lon="2.17315">
        <ele>1576</ele>
        <time>2019-04-17T14:48:46Z</time>
      </trkpt>
      <trkpt lat="42.48018" lon="2.17302">
        <ele>1573</ele>
        <time>2019-04-17T14:48:56Z</time>
      </trkpt>
      <trkpt lat="42.48027" lon="2.17297">
        <ele>1574</ele>
        <time>2019-04-17T14:49:01Z</time>
      </trkpt>
      <trkpt lat="42.48036" lon="2.17292">
        <ele>1575</ele>
        <time>2019-04-17T14:49:10Z</time>
      </trkpt>
      <trkpt lat="42.48044" lon="2.17286">
        <ele>1571</ele>
        <time>2019-04-17T14:49:23Z</time>
      </trkpt>
      <trkpt lat="42.48053" lon="2.17283">
        <ele>1572</ele>
        <time>2019-04-17T14:49:31Z</time>
      </trkpt>
      <trkpt lat="42.48062" lon="2.1728">
        <ele>1570</ele>
        <time>2019-04-17T14:49:39Z</time>
      </trkpt>
      <trkpt lat="42.48071" lon="2.17277">
        <ele>1569</ele>
        <time>2019-04-17T14:49:50Z</time>
      </trkpt>
      <trkpt lat="42.4808" lon="2.17271">
        <ele>1568</ele>
        <time>2019-04-17T14:49:57Z</time>
      </trkpt>
      <trkpt lat="42.48088" lon="2.17264">
        <ele>1567</ele>
        <time>2019-04-17T14:50:03Z</time>
      </trkpt>
      <trkpt lat="42.48096" lon="2.17259">
        <ele>1566</ele>
        <time>2019-04-17T14:50:10Z</time>
      </trkpt>
      <trkpt lat="42.48106" lon="2.17256">
        <ele>1567</ele>
        <time>2019-04-17T14:50:19Z</time>
      </trkpt>
      <trkpt lat="42.48116" lon="2.17256">
        <ele>1560</ele>
        <time>2019-04-17T14:50:29Z</time>
      </trkpt>
      <trkpt lat="42.48125" lon="2.17251">
        <ele>1564</ele>
        <time>2019-04-17T14:50:37Z</time>
      </trkpt>
      <trkpt lat="42.48133" lon="2.17244">
        <ele>1563</ele>
        <time>2019-04-17T14:50:43Z</time>
      </trkpt>
      <trkpt lat="42.4814" lon="2.17234">
        <ele>1559</ele>
        <time>2019-04-17T14:50:50Z</time>
      </trkpt>
      <trkpt lat="42.48147" lon="2.17225">
        <ele>1557</ele>
        <time>2019-04-17T14:50:59Z</time>
      </trkpt>
      <trkpt lat="42.48156" lon="2.17219">
        <ele>1559</ele>
        <time>2019-04-17T14:51:06Z</time>
      </trkpt>
      <trkpt lat="42.48165" lon="2.17214">
        <ele>1555</ele>
        <time>2019-04-17T14:51:11Z</time>
      </trkpt>
      <trkpt lat="42.48174" lon="2.17207">
        <ele>1553</ele>
        <time>2019-04-17T14:51:16Z</time>
      </trkpt>
      <trkpt lat="42.4818" lon="2.17196">
        <ele>1555</ele>
        <time>2019-04-17T14:51:22Z</time>
      </trkpt>
      <trkpt lat="42.48188" lon="2.17188">
        <ele>1553</ele>
        <time>2019-04-17T14:51:29Z</time>
      </trkpt>
      <trkpt lat="42.48196" lon="2.1718">
        <ele>1551</ele>
        <time>2019-04-17T14:51:35Z</time>
      </trkpt>
      <trkpt lat="42.48202" lon="2.17171">
        <ele>1551</ele>
        <time>2019-04-17T14:51:41Z</time>
      </trkpt>
      <trkpt lat="42.48197" lon="2.17159">
        <ele>1552</ele>
        <time>2019-04-17T14:51:48Z</time>
      </trkpt>
      <trkpt lat="42.48202" lon="2.17148">
        <ele>1550</ele>
        <time>2019-04-17T14:51:59Z</time>
      </trkpt>
      <trkpt lat="42.4821" lon="2.1714">
        <ele>1549</ele>
        <time>2019-04-17T14:52:07Z</time>
      </trkpt>
      <trkpt lat="42.4822" lon="2.17138">
        <ele>1545</ele>
        <time>2019-04-17T14:52:12Z</time>
      </trkpt>
      <trkpt lat="42.48226" lon="2.17129">
        <ele>1544</ele>
        <time>2019-04-17T14:52:20Z</time>
      </trkpt>
      <trkpt lat="42.48231" lon="2.17117">
        <ele>1541</ele>
        <time>2019-04-17T14:52:28Z</time>
      </trkpt>
      <trkpt lat="42.48239" lon="2.1711">
        <ele>1540</ele>
        <time>2019-04-17T14:52:35Z</time>
      </trkpt>
      <trkpt lat="42.48244" lon="2.17099">
        <ele>1540</ele>
        <time>2019-04-17T14:52:44Z</time>
      </trkpt>
      <trkpt lat="42.48251" lon="2.1709">
        <ele>1539</ele>
        <time>2019-04-17T14:52:51Z</time>
      </trkpt>
      <trkpt lat="42.48259" lon="2.17084">
        <ele>1538</ele>
        <time>2019-04-17T14:52:58Z</time>
      </trkpt>
      <trkpt lat="42.48266" lon="2.17075">
        <ele>1535</ele>
        <time>2019-04-17T14:53:06Z</time>
      </trkpt>
      <trkpt lat="42.48263" lon="2.17062">
        <ele>1531</ele>
        <time>2019-04-17T14:53:25Z</time>
      </trkpt>
      <trkpt lat="42.48271" lon="2.17068">
        <ele>1529</ele>
        <time>2019-04-17T14:53:36Z</time>
      </trkpt>
      <trkpt lat="42.4828" lon="2.17069">
        <ele>1529</ele>
        <time>2019-04-17T14:53:44Z</time>
      </trkpt>
      <trkpt lat="42.4828" lon="2.17082">
        <ele>1528</ele>
        <time>2019-04-17T14:53:53Z</time>
      </trkpt>
      <trkpt lat="42.48273" lon="2.17092">
        <ele>1528</ele>
        <time>2019-04-17T14:53:59Z</time>
      </trkpt>
      <trkpt lat="42.48267" lon="2.17101">
        <ele>1527</ele>
        <time>2019-04-17T14:54:06Z</time>
      </trkpt>
      <trkpt lat="42.48259" lon="2.17109">
        <ele>1527</ele>
        <time>2019-04-17T14:54:12Z</time>
      </trkpt>
      <trkpt lat="42.48251" lon="2.17117">
        <ele>1528</ele>
        <time>2019-04-17T14:54:19Z</time>
      </trkpt>
      <trkpt lat="42.48244" lon="2.17126">
        <ele>1528</ele>
        <time>2019-04-17T14:54:27Z</time>
      </trkpt>
      <trkpt lat="42.48238" lon="2.17137">
        <ele>1526</ele>
        <time>2019-04-17T14:54:38Z</time>
      </trkpt>
      <trkpt lat="42.48231" lon="2.17149">
        <ele>1525</ele>
        <time>2019-04-17T14:54:52Z</time>
      </trkpt>
      <trkpt lat="42.48225" lon="2.17161">
        <ele>1526</ele>
        <time>2019-04-17T14:55:00Z</time>
      </trkpt>
      <trkpt lat="42.48218" lon="2.17177">
        <ele>1525</ele>
        <time>2019-04-17T14:55:13Z</time>
      </trkpt>
      <trkpt lat="42.4821" lon="2.17182">
        <ele>1523</ele>
        <time>2019-04-17T14:55:21Z</time>
      </trkpt>
      <trkpt lat="42.48212" lon="2.17195">
        <ele>1522</ele>
        <time>2019-04-17T14:55:27Z</time>
      </trkpt>
      <trkpt lat="42.48213" lon="2.1721">
        <ele>1522</ele>
        <time>2019-04-17T14:55:33Z</time>
      </trkpt>
      <trkpt lat="42.4821" lon="2.17222">
        <ele>1521</ele>
        <time>2019-04-17T14:55:40Z</time>
      </trkpt>
      <trkpt lat="42.48208" lon="2.17235">
        <ele>1518</ele>
        <time>2019-04-17T14:55:48Z</time>
      </trkpt>
      <trkpt lat="42.48206" lon="2.17248">
        <ele>1518</ele>
        <time>2019-04-17T14:55:56Z</time>
      </trkpt>
      <trkpt lat="42.48205" lon="2.17261">
        <ele>1518</ele>
        <time>2019-04-17T14:56:03Z</time>
      </trkpt>
      <trkpt lat="42.48203" lon="2.17273">
        <ele>1516</ele>
        <time>2019-04-17T14:56:11Z</time>
      </trkpt>
      <trkpt lat="42.482" lon="2.17286">
        <ele>1516</ele>
        <time>2019-04-17T14:56:21Z</time>
      </trkpt>
      <trkpt lat="42.48195" lon="2.17296">
        <ele>1515</ele>
        <time>2019-04-17T14:56:27Z</time>
      </trkpt>
      <trkpt lat="42.48187" lon="2.17305">
        <ele>1513</ele>
        <time>2019-04-17T14:56:35Z</time>
      </trkpt>
      <trkpt lat="42.4818" lon="2.17314">
        <ele>1511</ele>
        <time>2019-04-17T14:56:44Z</time>
      </trkpt>
      <trkpt lat="42.48173" lon="2.17323">
        <ele>1511</ele>
        <time>2019-04-17T14:56:52Z</time>
      </trkpt>
      <trkpt lat="42.48164" lon="2.17328">
        <ele>1510</ele>
        <time>2019-04-17T14:57:01Z</time>
      </trkpt>
      <trkpt lat="42.48155" lon="2.17334">
        <ele>1510</ele>
        <time>2019-04-17T14:57:10Z</time>
      </trkpt>
      <trkpt lat="42.48147" lon="2.17341">
        <ele>1509</ele>
        <time>2019-04-17T14:57:17Z</time>
      </trkpt>
      <trkpt lat="42.48138" lon="2.17344">
        <ele>1508</ele>
        <time>2019-04-17T14:57:24Z</time>
      </trkpt>
      <trkpt lat="42.48131" lon="2.17353">
        <ele>1505</ele>
        <time>2019-04-17T14:57:35Z</time>
      </trkpt>
      <trkpt lat="42.48125" lon="2.17363">
        <ele>1504</ele>
        <time>2019-04-17T14:57:42Z</time>
      </trkpt>
      <trkpt lat="42.48119" lon="2.17371">
        <ele>1505</ele>
        <time>2019-04-17T14:57:53Z</time>
      </trkpt>
      <trkpt lat="42.48114" lon="2.17383">
        <ele>1503</ele>
        <time>2019-04-17T14:58:01Z</time>
      </trkpt>
      <trkpt lat="42.48108" lon="2.17392">
        <ele>1501</ele>
        <time>2019-04-17T14:58:09Z</time>
      </trkpt>
      <trkpt lat="42.48103" lon="2.17403">
        <ele>1500</ele>
        <time>2019-04-17T14:58:19Z</time>
      </trkpt>
      <trkpt lat="42.48097" lon="2.17414">
        <ele>1499</ele>
        <time>2019-04-17T14:58:27Z</time>
      </trkpt>
      <trkpt lat="42.48094" lon="2.17426">
        <ele>1499</ele>
        <time>2019-04-17T14:58:35Z</time>
      </trkpt>
      <trkpt lat="42.48095" lon="2.17439">
        <ele>1497</ele>
        <time>2019-04-17T14:58:43Z</time>
      </trkpt>
      <trkpt lat="42.48101" lon="2.17449">
        <ele>1497</ele>
        <time>2019-04-17T14:58:52Z</time>
      </trkpt>
      <trkpt lat="42.48101" lon="2.17436">
        <ele>1487</ele>
        <time>2019-04-17T15:06:45Z</time>
      </trkpt>
      <trkpt lat="42.48095" lon="2.17446">
        <ele>1484</ele>
        <time>2019-04-17T15:07:30Z</time>
      </trkpt>
      <trkpt lat="42.48104" lon="2.17443">
        <ele>1482</ele>
        <time>2019-04-17T15:07:45Z</time>
      </trkpt>
      <trkpt lat="42.48113" lon="2.17446">
        <ele>1481</ele>
        <time>2019-04-17T15:07:58Z</time>
      </trkpt>
      <trkpt lat="42.48123" lon="2.17442">
        <ele>1479</ele>
        <time>2019-04-17T15:08:06Z</time>
      </trkpt>
      <trkpt lat="42.48132" lon="2.1744">
        <ele>1481</ele>
        <time>2019-04-17T15:08:12Z</time>
      </trkpt>
      <trkpt lat="42.48141" lon="2.17439">
        <ele>1481</ele>
        <time>2019-04-17T15:08:20Z</time>
      </trkpt>
      <trkpt lat="42.48155" lon="2.17432">
        <ele>1481</ele>
        <time>2019-04-17T15:08:32Z</time>
      </trkpt>
      <trkpt lat="42.48165" lon="2.1743">
        <ele>1480</ele>
        <time>2019-04-17T15:08:40Z</time>
      </trkpt>
      <trkpt lat="42.48175" lon="2.17431">
        <ele>1480</ele>
        <time>2019-04-17T15:08:48Z</time>
      </trkpt>
      <trkpt lat="42.48185" lon="2.17432">
        <ele>1481</ele>
        <time>2019-04-17T15:08:56Z</time>
      </trkpt>
      <trkpt lat="42.48195" lon="2.17433">
        <ele>1482</ele>
        <time>2019-04-17T15:09:02Z</time>
      </trkpt>
      <trkpt lat="42.48203" lon="2.17438">
        <ele>1480</ele>
        <time>2019-04-17T15:09:09Z</time>
      </trkpt>
      <trkpt lat="42.48213" lon="2.17437">
        <ele>1478</ele>
        <time>2019-04-17T15:09:17Z</time>
      </trkpt>
      <trkpt lat="42.48222" lon="2.17436">
        <ele>1480</ele>
        <time>2019-04-17T15:09:25Z</time>
      </trkpt>
      <trkpt lat="42.48231" lon="2.17432">
        <ele>1477</ele>
        <time>2019-04-17T15:09:33Z</time>
      </trkpt>
      <trkpt lat="42.4824" lon="2.17425">
        <ele>1478</ele>
        <time>2019-04-17T15:09:41Z</time>
      </trkpt>
      <trkpt lat="42.48249" lon="2.17422">
        <ele>1476</ele>
        <time>2019-04-17T15:09:50Z</time>
      </trkpt>
      <trkpt lat="42.48259" lon="2.17419">
        <ele>1476</ele>
        <time>2019-04-17T15:09:59Z</time>
      </trkpt>
      <trkpt lat="42.48267" lon="2.17413">
        <ele>1475</ele>
        <time>2019-04-17T15:10:07Z</time>
      </trkpt>
      <trkpt lat="42.48276" lon="2.17416">
        <ele>1474</ele>
        <time>2019-04-17T15:10:13Z</time>
      </trkpt>
      <trkpt lat="42.48285" lon="2.17412">
        <ele>1473</ele>
        <time>2019-04-17T15:10:22Z</time>
      </trkpt>
      <trkpt lat="42.48292" lon="2.17402">
        <ele>1472</ele>
        <time>2019-04-17T15:10:29Z</time>
      </trkpt>
      <trkpt lat="42.48301" lon="2.17399">
        <ele>1470</ele>
        <time>2019-04-17T15:10:38Z</time>
      </trkpt>
      <trkpt lat="42.4831" lon="2.17393">
        <ele>1467</ele>
        <time>2019-04-17T15:10:46Z</time>
      </trkpt>
      <trkpt lat="42.4832" lon="2.17389">
        <ele>1468</ele>
        <time>2019-04-17T15:10:53Z</time>
      </trkpt>
      <trkpt lat="42.48328" lon="2.17385">
        <ele>1468</ele>
        <time>2019-04-17T15:10:59Z</time>
      </trkpt>
      <trkpt lat="42.48337" lon="2.1738">
        <ele>1466</ele>
        <time>2019-04-17T15:11:06Z</time>
      </trkpt>
      <trkpt lat="42.48345" lon="2.17375">
        <ele>1464</ele>
        <time>2019-04-17T15:11:14Z</time>
      </trkpt>
      <trkpt lat="42.48352" lon="2.17367">
        <ele>1460</ele>
        <time>2019-04-17T15:11:23Z</time>
      </trkpt>
      <trkpt lat="42.48356" lon="2.17356">
        <ele>1456</ele>
        <time>2019-04-17T15:11:32Z</time>
      </trkpt>
      <trkpt lat="42.48363" lon="2.17347">
        <ele>1455</ele>
        <time>2019-04-17T15:11:40Z</time>
      </trkpt>
      <trkpt lat="42.48371" lon="2.17339">
        <ele>1454</ele>
        <time>2019-04-17T15:11:47Z</time>
      </trkpt>
      <trkpt lat="42.48378" lon="2.17331">
        <ele>1455</ele>
        <time>2019-04-17T15:11:54Z</time>
      </trkpt>
      <trkpt lat="42.48387" lon="2.17328">
        <ele>1456</ele>
        <time>2019-04-17T15:12:02Z</time>
      </trkpt>
      <trkpt lat="42.48397" lon="2.17329">
        <ele>1455</ele>
        <time>2019-04-17T15:12:11Z</time>
      </trkpt>
      <trkpt lat="42.48407" lon="2.17328">
        <ele>1455</ele>
        <time>2019-04-17T15:12:19Z</time>
      </trkpt>
      <trkpt lat="42.48415" lon="2.1732">
        <ele>1454</ele>
        <time>2019-04-17T15:12:29Z</time>
      </trkpt>
      <trkpt lat="42.48422" lon="2.17312">
        <ele>1451</ele>
        <time>2019-04-17T15:12:36Z</time>
      </trkpt>
      <trkpt lat="42.48427" lon="2.17302">
        <ele>1448</ele>
        <time>2019-04-17T15:12:44Z</time>
      </trkpt>
      <trkpt lat="42.48432" lon="2.1729">
        <ele>1445</ele>
        <time>2019-04-17T15:12:55Z</time>
      </trkpt>
      <trkpt lat="42.48436" lon="2.17279">
        <ele>1444</ele>
        <time>2019-04-17T15:13:06Z</time>
      </trkpt>
      <trkpt lat="42.48442" lon="2.17269">
        <ele>1443</ele>
        <time>2019-04-17T15:13:18Z</time>
      </trkpt>
      <trkpt lat="42.48449" lon="2.17259">
        <ele>1442</ele>
        <time>2019-04-17T15:13:28Z</time>
      </trkpt>
      <trkpt lat="42.48455" lon="2.1725">
        <ele>1442</ele>
        <time>2019-04-17T15:13:37Z</time>
      </trkpt>
      <trkpt lat="42.48461" lon="2.17239">
        <ele>1442</ele>
        <time>2019-04-17T15:13:46Z</time>
      </trkpt>
      <trkpt lat="42.48469" lon="2.17233">
        <ele>1440</ele>
        <time>2019-04-17T15:13:56Z</time>
      </trkpt>
      <trkpt lat="42.48477" lon="2.17227">
        <ele>1442</ele>
        <time>2019-04-17T15:14:05Z</time>
      </trkpt>
      <trkpt lat="42.48484" lon="2.17219">
        <ele>1440</ele>
        <time>2019-04-17T15:14:15Z</time>
      </trkpt>
      <trkpt lat="42.48494" lon="2.1722">
        <ele>1441</ele>
        <time>2019-04-17T15:14:23Z</time>
      </trkpt>
      <trkpt lat="42.48503" lon="2.17217">
        <ele>1441</ele>
        <time>2019-04-17T15:14:32Z</time>
      </trkpt>
      <trkpt lat="42.48512" lon="2.17212">
        <ele>1442</ele>
        <time>2019-04-17T15:14:40Z</time>
      </trkpt>
      <trkpt lat="42.48521" lon="2.17207">
        <ele>1443</ele>
        <time>2019-04-17T15:14:48Z</time>
      </trkpt>
      <trkpt lat="42.4853" lon="2.17207">
        <ele>1443</ele>
        <time>2019-04-17T15:14:55Z</time>
      </trkpt>
      <trkpt lat="42.48537" lon="2.17199">
        <ele>1443</ele>
        <time>2019-04-17T15:15:02Z</time>
      </trkpt>
      <trkpt lat="42.48542" lon="2.17189">
        <ele>1442</ele>
        <time>2019-04-17T15:15:09Z</time>
      </trkpt>
      <trkpt lat="42.48548" lon="2.17178">
        <ele>1441</ele>
        <time>2019-04-17T15:15:18Z</time>
      </trkpt>
      <trkpt lat="42.48552" lon="2.17167">
        <ele>1441</ele>
        <time>2019-04-17T15:15:24Z</time>
      </trkpt>
      <trkpt lat="42.48562" lon="2.17166">
        <ele>1441</ele>
        <time>2019-04-17T15:15:34Z</time>
      </trkpt>
      <trkpt lat="42.48569" lon="2.17158">
        <ele>1441</ele>
        <time>2019-04-17T15:15:44Z</time>
      </trkpt>
      <trkpt lat="42.48578" lon="2.17159">
        <ele>1442</ele>
        <time>2019-04-17T15:15:54Z</time>
      </trkpt>
      <trkpt lat="42.48587" lon="2.17148">
        <ele>1443</ele>
        <time>2019-04-17T15:16:04Z</time>
      </trkpt>
      <trkpt lat="42.4859" lon="2.17136">
        <ele>1442</ele>
        <time>2019-04-17T15:16:09Z</time>
      </trkpt>
      <trkpt lat="42.48599" lon="2.17142">
        <ele>1443</ele>
        <time>2019-04-17T15:16:20Z</time>
      </trkpt>
      <trkpt lat="42.48604" lon="2.17154">
        <ele>1444</ele>
        <time>2019-04-17T15:16:29Z</time>
      </trkpt>
      <trkpt lat="42.48611" lon="2.17161">
        <ele>1445</ele>
        <time>2019-04-17T15:16:40Z</time>
      </trkpt>
      <trkpt lat="42.48618" lon="2.17169">
        <ele>1444</ele>
        <time>2019-04-17T15:16:49Z</time>
      </trkpt>
      <trkpt lat="42.48616" lon="2.17181">
        <ele>1445</ele>
        <time>2019-04-17T15:16:59Z</time>
      </trkpt>
      <trkpt lat="42.48625" lon="2.17188">
        <ele>1446</ele>
        <time>2019-04-17T15:17:04Z</time>
      </trkpt>
      <trkpt lat="42.4863" lon="2.17198">
        <ele>1446</ele>
        <time>2019-04-17T15:17:17Z</time>
      </trkpt>
      <trkpt lat="42.48638" lon="2.17206">
        <ele>1448</ele>
        <time>2019-04-17T15:17:26Z</time>
      </trkpt>
      <trkpt lat="42.48647" lon="2.17212">
        <ele>1448</ele>
        <time>2019-04-17T15:17:33Z</time>
      </trkpt>
      <trkpt lat="42.48654" lon="2.1722">
        <ele>1449</ele>
        <time>2019-04-17T15:17:44Z</time>
      </trkpt>
      <trkpt lat="42.48659" lon="2.17232">
        <ele>1449</ele>
        <time>2019-04-17T15:17:54Z</time>
      </trkpt>
      <trkpt lat="42.48667" lon="2.17241">
        <ele>1452</ele>
        <time>2019-04-17T15:18:05Z</time>
      </trkpt>
      <trkpt lat="42.48675" lon="2.17248">
        <ele>1452</ele>
        <time>2019-04-17T15:18:14Z</time>
      </trkpt>
      <trkpt lat="42.48684" lon="2.17252">
        <ele>1454</ele>
        <time>2019-04-17T15:18:23Z</time>
      </trkpt>
      <trkpt lat="42.48693" lon="2.17253">
        <ele>1454</ele>
        <time>2019-04-17T15:18:33Z</time>
      </trkpt>
      <trkpt lat="42.48704" lon="2.17254">
        <ele>1454</ele>
        <time>2019-04-17T15:18:46Z</time>
      </trkpt>
      <trkpt lat="42.48713" lon="2.17257">
        <ele>1454</ele>
        <time>2019-04-17T15:18:56Z</time>
      </trkpt>
      <trkpt lat="42.48721" lon="2.17264">
        <ele>1455</ele>
        <time>2019-04-17T15:19:04Z</time>
      </trkpt>
      <trkpt lat="42.48727" lon="2.17274">
        <ele>1457</ele>
        <time>2019-04-17T15:19:14Z</time>
      </trkpt>
      <trkpt lat="42.48733" lon="2.17284">
        <ele>1457</ele>
        <time>2019-04-17T15:19:22Z</time>
      </trkpt>
      <trkpt lat="42.48738" lon="2.17296">
        <ele>1459</ele>
        <time>2019-04-17T15:19:34Z</time>
      </trkpt>
      <trkpt lat="42.48746" lon="2.17302">
        <ele>1460</ele>
        <time>2019-04-17T15:19:40Z</time>
      </trkpt>
      <trkpt lat="42.48755" lon="2.17305">
        <ele>1459</ele>
        <time>2019-04-17T15:19:49Z</time>
      </trkpt>
      <trkpt lat="42.48764" lon="2.17305">
        <ele>1461</ele>
        <time>2019-04-17T15:19:57Z</time>
      </trkpt>
      <trkpt lat="42.48773" lon="2.17307">
        <ele>1461</ele>
        <time>2019-04-17T15:20:04Z</time>
      </trkpt>
      <trkpt lat="42.48782" lon="2.173">
        <ele>1461</ele>
        <time>2019-04-17T15:20:15Z</time>
      </trkpt>
      <trkpt lat="42.48791" lon="2.17296">
        <ele>1460</ele>
        <time>2019-04-17T15:20:24Z</time>
      </trkpt>
      <trkpt lat="42.488" lon="2.17295">
        <ele>1462</ele>
        <time>2019-04-17T15:20:33Z</time>
      </trkpt>
      <trkpt lat="42.4881" lon="2.17295">
        <ele>1462</ele>
        <time>2019-04-17T15:20:43Z</time>
      </trkpt>
      <trkpt lat="42.4882" lon="2.17294">
        <ele>1461</ele>
        <time>2019-04-17T15:20:52Z</time>
      </trkpt>
      <trkpt lat="42.48828" lon="2.17288">
        <ele>1460</ele>
        <time>2019-04-17T15:21:01Z</time>
      </trkpt>
      <trkpt lat="42.48836" lon="2.17282">
        <ele>1461</ele>
        <time>2019-04-17T15:21:09Z</time>
      </trkpt>
      <trkpt lat="42.48845" lon="2.17274">
        <ele>1460</ele>
        <time>2019-04-17T15:21:17Z</time>
      </trkpt>
      <trkpt lat="42.48852" lon="2.17265">
        <ele>1461</ele>
        <time>2019-04-17T15:21:25Z</time>
      </trkpt>
      <trkpt lat="42.48859" lon="2.17256">
        <ele>1461</ele>
        <time>2019-04-17T15:21:34Z</time>
      </trkpt>
      <trkpt lat="42.48867" lon="2.1725">
        <ele>1461</ele>
        <time>2019-04-17T15:21:41Z</time>
      </trkpt>
      <trkpt lat="42.48877" lon="2.1725">
        <ele>1460</ele>
        <time>2019-04-17T15:21:49Z</time>
      </trkpt>
      <trkpt lat="42.48886" lon="2.17251">
        <ele>1457</ele>
        <time>2019-04-17T15:22:00Z</time>
      </trkpt>
      <trkpt lat="42.48895" lon="2.17249">
        <ele>1458</ele>
        <time>2019-04-17T15:22:09Z</time>
      </trkpt>
      <trkpt lat="42.48905" lon="2.17249">
        <ele>1459</ele>
        <time>2019-04-17T15:22:16Z</time>
      </trkpt>
      <trkpt lat="42.48913" lon="2.17254">
        <ele>1459</ele>
        <time>2019-04-17T15:22:24Z</time>
      </trkpt>
      <trkpt lat="42.48917" lon="2.17267">
        <ele>1459</ele>
        <time>2019-04-17T15:22:33Z</time>
      </trkpt>
      <trkpt lat="42.48919" lon="2.1728">
        <ele>1460</ele>
        <time>2019-04-17T15:22:42Z</time>
      </trkpt>
      <trkpt lat="42.4892" lon="2.17293">
        <ele>1461</ele>
        <time>2019-04-17T15:22:51Z</time>
      </trkpt>
      <trkpt lat="42.48925" lon="2.17304">
        <ele>1461</ele>
        <time>2019-04-17T15:22:59Z</time>
      </trkpt>
      <trkpt lat="42.48932" lon="2.17313">
        <ele>1460</ele>
        <time>2019-04-17T15:23:05Z</time>
      </trkpt>
      <trkpt lat="42.48939" lon="2.17321">
        <ele>1460</ele>
        <time>2019-04-17T15:23:10Z</time>
      </trkpt>
      <trkpt lat="42.48947" lon="2.17327">
        <ele>1459</ele>
        <time>2019-04-17T15:23:16Z</time>
      </trkpt>
      <trkpt lat="42.48952" lon="2.17339">
        <ele>1460</ele>
        <time>2019-04-17T15:23:25Z</time>
      </trkpt>
      <trkpt lat="42.48952" lon="2.17352">
        <ele>1460</ele>
        <time>2019-04-17T15:23:32Z</time>
      </trkpt>
      <trkpt lat="42.4896" lon="2.17357">
        <ele>1460</ele>
        <time>2019-04-17T15:23:38Z</time>
      </trkpt>
      <trkpt lat="42.48961" lon="2.1737">
        <ele>1461</ele>
        <time>2019-04-17T15:23:47Z</time>
      </trkpt>
      <trkpt lat="42.48968" lon="2.17378">
        <ele>1460</ele>
        <time>2019-04-17T15:23:55Z</time>
      </trkpt>
      <trkpt lat="42.48976" lon="2.17385">
        <ele>1459</ele>
        <time>2019-04-17T15:24:03Z</time>
      </trkpt>
      <trkpt lat="42.48983" lon="2.17392">
        <ele>1460</ele>
        <time>2019-04-17T15:24:12Z</time>
      </trkpt>
      <trkpt lat="42.48992" lon="2.17396">
        <ele>1458</ele>
        <time>2019-04-17T15:24:21Z</time>
      </trkpt>
      <trkpt lat="42.49001" lon="2.17401">
        <ele>1456</ele>
        <time>2019-04-17T15:24:30Z</time>
      </trkpt>
      <trkpt lat="42.49007" lon="2.17411">
        <ele>1454</ele>
        <time>2019-04-17T15:24:41Z</time>
      </trkpt>
      <trkpt lat="42.49017" lon="2.17415">
        <ele>1454</ele>
        <time>2019-04-17T15:24:51Z</time>
      </trkpt>
      <trkpt lat="42.49027" lon="2.17411">
        <ele>1454</ele>
        <time>2019-04-17T15:24:59Z</time>
      </trkpt>
      <trkpt lat="42.49035" lon="2.17406">
        <ele>1452</ele>
        <time>2019-04-17T15:25:08Z</time>
      </trkpt>
      <trkpt lat="42.49044" lon="2.17407">
        <ele>1451</ele>
        <time>2019-04-17T15:25:19Z</time>
      </trkpt>
      <trkpt lat="42.49055" lon="2.17408">
        <ele>1450</ele>
        <time>2019-04-17T15:25:27Z</time>
      </trkpt>
      <trkpt lat="42.49064" lon="2.17408">
        <ele>1449</ele>
        <time>2019-04-17T15:25:35Z</time>
      </trkpt>
      <trkpt lat="42.49073" lon="2.17407">
        <ele>1448</ele>
        <time>2019-04-17T15:25:42Z</time>
      </trkpt>
      <trkpt lat="42.49083" lon="2.17405">
        <ele>1445</ele>
        <time>2019-04-17T15:25:52Z</time>
      </trkpt>
      <trkpt lat="42.49094" lon="2.17403">
        <ele>1443</ele>
        <time>2019-04-17T15:26:06Z</time>
      </trkpt>
      <trkpt lat="42.4911" lon="2.17398">
        <ele>1442</ele>
        <time>2019-04-17T15:26:20Z</time>
      </trkpt>
      <trkpt lat="42.49119" lon="2.17401">
        <ele>1440</ele>
        <time>2019-04-17T15:26:28Z</time>
      </trkpt>
      <trkpt lat="42.49129" lon="2.17401">
        <ele>1439</ele>
        <time>2019-04-17T15:26:34Z</time>
      </trkpt>
      <trkpt lat="42.49138" lon="2.17401">
        <ele>1439</ele>
        <time>2019-04-17T15:26:42Z</time>
      </trkpt>
      <trkpt lat="42.49147" lon="2.17397">
        <ele>1438</ele>
        <time>2019-04-17T15:26:50Z</time>
      </trkpt>
      <trkpt lat="42.49156" lon="2.17392">
        <ele>1436</ele>
        <time>2019-04-17T15:26:58Z</time>
      </trkpt>
      <trkpt lat="42.49166" lon="2.17388">
        <ele>1436</ele>
        <time>2019-04-17T15:27:05Z</time>
      </trkpt>
      <trkpt lat="42.49174" lon="2.17382">
        <ele>1433</ele>
        <time>2019-04-17T15:27:13Z</time>
      </trkpt>
      <trkpt lat="42.49183" lon="2.17377">
        <ele>1431</ele>
        <time>2019-04-17T15:27:22Z</time>
      </trkpt>
      <trkpt lat="42.4919" lon="2.17366">
        <ele>1428</ele>
        <time>2019-04-17T15:27:33Z</time>
      </trkpt>
      <trkpt lat="42.49196" lon="2.17356">
        <ele>1428</ele>
        <time>2019-04-17T15:27:41Z</time>
      </trkpt>
      <trkpt lat="42.49202" lon="2.17346">
        <ele>1426</ele>
        <time>2019-04-17T15:27:50Z</time>
      </trkpt>
      <trkpt lat="42.49209" lon="2.17338">
        <ele>1425</ele>
        <time>2019-04-17T15:27:58Z</time>
      </trkpt>
      <trkpt lat="42.49216" lon="2.17331">
        <ele>1424</ele>
        <time>2019-04-17T15:28:05Z</time>
      </trkpt>
      <trkpt lat="42.49225" lon="2.17325">
        <ele>1422</ele>
        <time>2019-04-17T15:28:13Z</time>
      </trkpt>
      <trkpt lat="42.49233" lon="2.1732">
        <ele>1421</ele>
        <time>2019-04-17T15:28:21Z</time>
      </trkpt>
      <trkpt lat="42.49242" lon="2.17316">
        <ele>1421</ele>
        <time>2019-04-17T15:28:29Z</time>
      </trkpt>
      <trkpt lat="42.49251" lon="2.17312">
        <ele>1421</ele>
        <time>2019-04-17T15:28:37Z</time>
      </trkpt>
      <trkpt lat="42.4926" lon="2.17307">
        <ele>1420</ele>
        <time>2019-04-17T15:28:44Z</time>
      </trkpt>
      <trkpt lat="42.49268" lon="2.173">
        <ele>1418</ele>
        <time>2019-04-17T15:28:53Z</time>
      </trkpt>
      <trkpt lat="42.49277" lon="2.17294">
        <ele>1415</ele>
        <time>2019-04-17T15:29:15Z</time>
      </trkpt>
      <trkpt lat="42.49285" lon="2.17286">
        <ele>1414</ele>
        <time>2019-04-17T15:29:22Z</time>
      </trkpt>
      <trkpt lat="42.49293" lon="2.17276">
        <ele>1412</ele>
        <time>2019-04-17T15:29:30Z</time>
      </trkpt>
      <trkpt lat="42.49302" lon="2.17269">
        <ele>1411</ele>
        <time>2019-04-17T15:29:37Z</time>
      </trkpt>
      <trkpt lat="42.4931" lon="2.17263">
        <ele>1410</ele>
        <time>2019-04-17T15:29:45Z</time>
      </trkpt>
      <trkpt lat="42.49319" lon="2.17258">
        <ele>1410</ele>
        <time>2019-04-17T15:29:53Z</time>
      </trkpt>
      <trkpt lat="42.49328" lon="2.17255">
        <ele>1410</ele>
        <time>2019-04-17T15:30:00Z</time>
      </trkpt>
      <trkpt lat="42.49338" lon="2.1725">
        <ele>1409</ele>
        <time>2019-04-17T15:30:09Z</time>
      </trkpt>
      <trkpt lat="42.49347" lon="2.17247">
        <ele>1407</ele>
        <time>2019-04-17T15:30:17Z</time>
      </trkpt>
      <trkpt lat="42.49356" lon="2.17242">
        <ele>1407</ele>
        <time>2019-04-17T15:30:26Z</time>
      </trkpt>
      <trkpt lat="42.49364" lon="2.17237">
        <ele>1405</ele>
        <time>2019-04-17T15:30:36Z</time>
      </trkpt>
      <trkpt lat="42.49373" lon="2.17231">
        <ele>1404</ele>
        <time>2019-04-17T15:30:46Z</time>
      </trkpt>
      <trkpt lat="42.49385" lon="2.17212">
        <ele>1403</ele>
        <time>2019-04-17T15:31:00Z</time>
      </trkpt>
      <trkpt lat="42.4939" lon="2.17202">
        <ele>1402</ele>
        <time>2019-04-17T15:31:07Z</time>
      </trkpt>
      <trkpt lat="42.49394" lon="2.17189">
        <ele>1401</ele>
        <time>2019-04-17T15:31:14Z</time>
      </trkpt>
      <trkpt lat="42.49397" lon="2.17177">
        <ele>1400</ele>
        <time>2019-04-17T15:31:22Z</time>
      </trkpt>
      <trkpt lat="42.49398" lon="2.17164">
        <ele>1400</ele>
        <time>2019-04-17T15:31:30Z</time>
      </trkpt>
      <trkpt lat="42.49401" lon="2.17152">
        <ele>1397</ele>
        <time>2019-04-17T15:31:39Z</time>
      </trkpt>
      <trkpt lat="42.49405" lon="2.1714">
        <ele>1396</ele>
        <time>2019-04-17T15:31:47Z</time>
      </trkpt>
      <trkpt lat="42.49411" lon="2.17129">
        <ele>1394</ele>
        <time>2019-04-17T15:31:55Z</time>
      </trkpt>
      <trkpt lat="42.49421" lon="2.17127">
        <ele>1394</ele>
        <time>2019-04-17T15:32:04Z</time>
      </trkpt>
      <trkpt lat="42.4943" lon="2.1712">
        <ele>1393</ele>
        <time>2019-04-17T15:32:12Z</time>
      </trkpt>
      <trkpt lat="42.49438" lon="2.17118">
        <ele>1393</ele>
        <time>2019-04-17T15:32:20Z</time>
      </trkpt>
      <trkpt lat="42.49444" lon="2.17108">
        <ele>1393</ele>
        <time>2019-04-17T15:32:28Z</time>
      </trkpt>
      <trkpt lat="42.49453" lon="2.17103">
        <ele>1391</ele>
        <time>2019-04-17T15:32:37Z</time>
      </trkpt>
      <trkpt lat="42.4946" lon="2.17094">
        <ele>1389</ele>
        <time>2019-04-17T15:32:46Z</time>
      </trkpt>
      <trkpt lat="42.49467" lon="2.17086">
        <ele>1388</ele>
        <time>2019-04-17T15:32:55Z</time>
      </trkpt>
      <trkpt lat="42.49477" lon="2.17087">
        <ele>1387</ele>
        <time>2019-04-17T15:33:03Z</time>
      </trkpt>
      <trkpt lat="42.49486" lon="2.17091">
        <ele>1386</ele>
        <time>2019-04-17T15:33:10Z</time>
      </trkpt>
      <trkpt lat="42.49494" lon="2.17097">
        <ele>1386</ele>
        <time>2019-04-17T15:33:17Z</time>
      </trkpt>
      <trkpt lat="42.49501" lon="2.17104">
        <ele>1386</ele>
        <time>2019-04-17T15:33:24Z</time>
      </trkpt>
      <trkpt lat="42.49509" lon="2.17113">
        <ele>1386</ele>
        <time>2019-04-17T15:33:31Z</time>
      </trkpt>
      <trkpt lat="42.49516" lon="2.17123">
        <ele>1385</ele>
        <time>2019-04-17T15:33:39Z</time>
      </trkpt>
      <trkpt lat="42.49521" lon="2.17134">
        <ele>1384</ele>
        <time>2019-04-17T15:33:48Z</time>
      </trkpt>
      <trkpt lat="42.49526" lon="2.17145">
        <ele>1384</ele>
        <time>2019-04-17T15:33:56Z</time>
      </trkpt>
      <trkpt lat="42.49533" lon="2.17154">
        <ele>1382</ele>
        <time>2019-04-17T15:34:04Z</time>
      </trkpt>
      <trkpt lat="42.4954" lon="2.17163">
        <ele>1383</ele>
        <time>2019-04-17T15:34:12Z</time>
      </trkpt>
      <trkpt lat="42.4954" lon="2.17175">
        <ele>1383</ele>
        <time>2019-04-17T15:34:21Z</time>
      </trkpt>
      <trkpt lat="42.49545" lon="2.17186">
        <ele>1383</ele>
        <time>2019-04-17T15:34:29Z</time>
      </trkpt>
      <trkpt lat="42.49548" lon="2.17197">
        <ele>1383</ele>
        <time>2019-04-17T15:34:36Z</time>
      </trkpt>
      <trkpt lat="42.49551" lon="2.1721">
        <ele>1381</ele>
        <time>2019-04-17T15:34:44Z</time>
      </trkpt>
      <trkpt lat="42.49554" lon="2.17222">
        <ele>1381</ele>
        <time>2019-04-17T15:34:53Z</time>
      </trkpt>
      <trkpt lat="42.49559" lon="2.17232">
        <ele>1380</ele>
        <time>2019-04-17T15:35:01Z</time>
      </trkpt>
      <trkpt lat="42.49563" lon="2.17244">
        <ele>1379</ele>
        <time>2019-04-17T15:35:10Z</time>
      </trkpt>
      <trkpt lat="42.49569" lon="2.17254">
        <ele>1378</ele>
        <time>2019-04-17T15:35:18Z</time>
      </trkpt>
      <trkpt lat="42.49575" lon="2.17264">
        <ele>1377</ele>
        <time>2019-04-17T15:35:27Z</time>
      </trkpt>
      <trkpt lat="42.49584" lon="2.17269">
        <ele>1376</ele>
        <time>2019-04-17T15:35:35Z</time>
      </trkpt>
      <trkpt lat="42.49591" lon="2.17278">
        <ele>1375</ele>
        <time>2019-04-17T15:35:42Z</time>
      </trkpt>
      <trkpt lat="42.49599" lon="2.17286">
        <ele>1375</ele>
        <time>2019-04-17T15:35:50Z</time>
      </trkpt>
      <trkpt lat="42.49607" lon="2.17293">
        <ele>1374</ele>
        <time>2019-04-17T15:35:58Z</time>
      </trkpt>
      <trkpt lat="42.49614" lon="2.17302">
        <ele>1374</ele>
        <time>2019-04-17T15:36:06Z</time>
      </trkpt>
      <trkpt lat="42.49619" lon="2.17312">
        <ele>1373</ele>
        <time>2019-04-17T15:36:14Z</time>
      </trkpt>
      <trkpt lat="42.49625" lon="2.17321">
        <ele>1373</ele>
        <time>2019-04-17T15:36:21Z</time>
      </trkpt>
      <trkpt lat="42.4963" lon="2.17333">
        <ele>1374</ele>
        <time>2019-04-17T15:36:29Z</time>
      </trkpt>
      <trkpt lat="42.49638" lon="2.17339">
        <ele>1373</ele>
        <time>2019-04-17T15:36:37Z</time>
      </trkpt>
      <trkpt lat="42.49646" lon="2.17346">
        <ele>1371</ele>
        <time>2019-04-17T15:36:45Z</time>
      </trkpt>
      <trkpt lat="42.49653" lon="2.17356">
        <ele>1370</ele>
        <time>2019-04-17T15:36:53Z</time>
      </trkpt>
      <trkpt lat="42.49661" lon="2.17362">
        <ele>1368</ele>
        <time>2019-04-17T15:37:01Z</time>
      </trkpt>
      <trkpt lat="42.49665" lon="2.17374">
        <ele>1367</ele>
        <time>2019-04-17T15:37:09Z</time>
      </trkpt>
      <trkpt lat="42.49669" lon="2.17385">
        <ele>1366</ele>
        <time>2019-04-17T15:37:17Z</time>
      </trkpt>
      <trkpt lat="42.49673" lon="2.17397">
        <ele>1364</ele>
        <time>2019-04-17T15:37:26Z</time>
      </trkpt>
      <trkpt lat="42.49675" lon="2.17411">
        <ele>1365</ele>
        <time>2019-04-17T15:37:34Z</time>
      </trkpt>
      <trkpt lat="42.4968" lon="2.17422">
        <ele>1364</ele>
        <time>2019-04-17T15:37:41Z</time>
      </trkpt>
      <trkpt lat="42.49683" lon="2.17435">
        <ele>1364</ele>
        <time>2019-04-17T15:37:49Z</time>
      </trkpt>
      <trkpt lat="42.49688" lon="2.17446">
        <ele>1363</ele>
        <time>2019-04-17T15:37:57Z</time>
      </trkpt>
      <trkpt lat="42.49698" lon="2.17453">
        <ele>1363</ele>
        <time>2019-04-17T15:38:04Z</time>
      </trkpt>
      <trkpt lat="42.49705" lon="2.17459">
        <ele>1362</ele>
        <time>2019-04-17T15:38:10Z</time>
      </trkpt>
      <trkpt lat="42.49713" lon="2.17467">
        <ele>1362</ele>
        <time>2019-04-17T15:38:17Z</time>
      </trkpt>
      <trkpt lat="42.49719" lon="2.17475">
        <ele>1361</ele>
        <time>2019-04-17T15:38:25Z</time>
      </trkpt>
      <trkpt lat="42.49726" lon="2.17485">
        <ele>1361</ele>
        <time>2019-04-17T15:38:34Z</time>
      </trkpt>
      <trkpt lat="42.49733" lon="2.17494">
        <ele>1360</ele>
        <time>2019-04-17T15:38:43Z</time>
      </trkpt>
      <trkpt lat="42.49741" lon="2.17502">
        <ele>1359</ele>
        <time>2019-04-17T15:38:52Z</time>
      </trkpt>
      <trkpt lat="42.49748" lon="2.1751">
        <ele>1358</ele>
        <time>2019-04-17T15:39:00Z</time>
      </trkpt>
      <trkpt lat="42.49755" lon="2.17519">
        <ele>1357</ele>
        <time>2019-04-17T15:39:08Z</time>
      </trkpt>
      <trkpt lat="42.4976" lon="2.17531">
        <ele>1356</ele>
        <time>2019-04-17T15:39:17Z</time>
      </trkpt>
      <trkpt lat="42.49768" lon="2.17539">
        <ele>1355</ele>
        <time>2019-04-17T15:39:26Z</time>
      </trkpt>
      <trkpt lat="42.49776" lon="2.17546">
        <ele>1354</ele>
        <time>2019-04-17T15:39:34Z</time>
      </trkpt>
      <trkpt lat="42.49782" lon="2.17555">
        <ele>1354</ele>
        <time>2019-04-17T15:39:42Z</time>
      </trkpt>
      <trkpt lat="42.49791" lon="2.17563">
        <ele>1353</ele>
        <time>2019-04-17T15:39:50Z</time>
      </trkpt>
      <trkpt lat="42.49799" lon="2.17568">
        <ele>1353</ele>
        <time>2019-04-17T15:39:57Z</time>
      </trkpt>
      <trkpt lat="42.49808" lon="2.17574">
        <ele>1353</ele>
        <time>2019-04-17T15:40:04Z</time>
      </trkpt>
      <trkpt lat="42.49815" lon="2.17583">
        <ele>1352</ele>
        <time>2019-04-17T15:40:13Z</time>
      </trkpt>
      <trkpt lat="42.49824" lon="2.17591">
        <ele>1352</ele>
        <time>2019-04-17T15:40:23Z</time>
      </trkpt>
      <trkpt lat="42.49834" lon="2.1759">
        <ele>1350</ele>
        <time>2019-04-17T15:40:33Z</time>
      </trkpt>
      <trkpt lat="42.49843" lon="2.1759">
        <ele>1349</ele>
        <time>2019-04-17T15:40:42Z</time>
      </trkpt>
      <trkpt lat="42.49852" lon="2.1759">
        <ele>1348</ele>
        <time>2019-04-17T15:40:50Z</time>
      </trkpt>
      <trkpt lat="42.49861" lon="2.17591">
        <ele>1347</ele>
        <time>2019-04-17T15:40:58Z</time>
      </trkpt>
      <trkpt lat="42.49871" lon="2.17591">
        <ele>1347</ele>
        <time>2019-04-17T15:41:07Z</time>
      </trkpt>
      <trkpt lat="42.4988" lon="2.17592">
        <ele>1346</ele>
        <time>2019-04-17T15:41:16Z</time>
      </trkpt>
      <trkpt lat="42.49889" lon="2.17594">
        <ele>1344</ele>
        <time>2019-04-17T15:41:24Z</time>
      </trkpt>
      <trkpt lat="42.49897" lon="2.17601">
        <ele>1343</ele>
        <time>2019-04-17T15:41:33Z</time>
      </trkpt>
      <trkpt lat="42.49907" lon="2.17603">
        <ele>1342</ele>
        <time>2019-04-17T15:41:42Z</time>
      </trkpt>
      <trkpt lat="42.49913" lon="2.17593">
        <ele>1340</ele>
        <time>2019-04-17T15:41:49Z</time>
      </trkpt>
      <trkpt lat="42.49907" lon="2.17583">
        <ele>1338</ele>
        <time>2019-04-17T15:41:58Z</time>
      </trkpt>
      <trkpt lat="42.49898" lon="2.1758">
        <ele>1338</ele>
        <time>2019-04-17T15:42:06Z</time>
      </trkpt>
      <trkpt lat="42.49889" lon="2.17579">
        <ele>1338</ele>
        <time>2019-04-17T15:42:14Z</time>
      </trkpt>
      <trkpt lat="42.49881" lon="2.17572">
        <ele>1337</ele>
        <time>2019-04-17T15:42:22Z</time>
      </trkpt>
      <trkpt lat="42.49874" lon="2.17563">
        <ele>1334</ele>
        <time>2019-04-17T15:42:30Z</time>
      </trkpt>
      <trkpt lat="42.49867" lon="2.17553">
        <ele>1333</ele>
        <time>2019-04-17T15:42:38Z</time>
      </trkpt>
      <trkpt lat="42.49864" lon="2.1754">
        <ele>1332</ele>
        <time>2019-04-17T15:42:46Z</time>
      </trkpt>
      <trkpt lat="42.49861" lon="2.17528">
        <ele>1331</ele>
        <time>2019-04-17T15:42:55Z</time>
      </trkpt>
      <trkpt lat="42.49859" lon="2.17515">
        <ele>1331</ele>
        <time>2019-04-17T15:43:03Z</time>
      </trkpt>
      <trkpt lat="42.49857" lon="2.17503">
        <ele>1331</ele>
        <time>2019-04-17T15:43:10Z</time>
      </trkpt>
      <trkpt lat="42.49855" lon="2.1749">
        <ele>1330</ele>
        <time>2019-04-17T15:43:17Z</time>
      </trkpt>
      <trkpt lat="42.49855" lon="2.17477">
        <ele>1329</ele>
        <time>2019-04-17T15:43:24Z</time>
      </trkpt>
      <trkpt lat="42.49855" lon="2.17464">
        <ele>1330</ele>
        <time>2019-04-17T15:43:32Z</time>
      </trkpt>
      <trkpt lat="42.49856" lon="2.17451">
        <ele>1328</ele>
        <time>2019-04-17T15:43:40Z</time>
      </trkpt>
      <trkpt lat="42.49857" lon="2.17439">
        <ele>1327</ele>
        <time>2019-04-17T15:43:48Z</time>
      </trkpt>
      <trkpt lat="42.49859" lon="2.17426">
        <ele>1326</ele>
        <time>2019-04-17T15:43:58Z</time>
      </trkpt>
      <trkpt lat="42.49863" lon="2.17414">
        <ele>1326</ele>
        <time>2019-04-17T15:44:06Z</time>
      </trkpt>
      <trkpt lat="42.49868" lon="2.17403">
        <ele>1325</ele>
        <time>2019-04-17T15:44:14Z</time>
      </trkpt>
      <trkpt lat="42.49873" lon="2.17392">
        <ele>1324</ele>
        <time>2019-04-17T15:44:22Z</time>
      </trkpt>
      <trkpt lat="42.4988" lon="2.17381">
        <ele>1323</ele>
        <time>2019-04-17T15:44:31Z</time>
      </trkpt>
      <trkpt lat="42.49886" lon="2.17372">
        <ele>1323</ele>
        <time>2019-04-17T15:44:39Z</time>
      </trkpt>
      <trkpt lat="42.49893" lon="2.17363">
        <ele>1321</ele>
        <time>2019-04-17T15:44:48Z</time>
      </trkpt>
      <trkpt lat="42.49898" lon="2.17351">
        <ele>1322</ele>
        <time>2019-04-17T15:44:57Z</time>
      </trkpt>
      <trkpt lat="42.49903" lon="2.17342">
        <ele>1321</ele>
        <time>2019-04-17T15:45:06Z</time>
      </trkpt>
    </trkseg>
  </trk>
</gpx>